<?xml version="1.0" encoding="UTF-8" standalone="no" ?>
<gpx xmlns="http://www.topografix.com/GPX/1/1" xmlns:xsi="http://www.w3.org/2001/XMLSchema-instance" xsi:schemaLocation="http://www.topografix.com/GPX/1/1 http://www.topografix.com/GPX/1/1/gpx.xsd" version="1.1" creator="VisuGPX - https://www.visugpx.com">
  <metadata>
    <name>Munster bike tour 2018 (2)</name>
  </metadata>
  <trk>
    <name><![CDATA[8867485-Munster bike tour 2018]]></name>
    <trkseg>
      <trkpt lat="48.02144" lon="7.08445">
        <ele>470</ele>
        <time>2019-05-06T12:25:18Z</time>
      </trkpt>
      <trkpt lat="48.0213" lon="7.0842">
        <ele>471</ele>
        <time>2019-05-06T12:26:18Z</time>
      </trkpt>
      <trkpt lat="48.02125" lon="7.08405">
        <ele>472</ele>
        <time>2019-05-06T12:27:18Z</time>
      </trkpt>
      <trkpt lat="48.02128" lon="7.08371">
        <ele>468</ele>
        <time>2019-05-06T12:28:18Z</time>
      </trkpt>
      <trkpt lat="48.02125" lon="7.0836">
        <ele>468</ele>
        <time>2019-05-06T12:29:18Z</time>
      </trkpt>
      <trkpt lat="48.02108" lon="7.08328">
        <ele>469</ele>
        <time>2019-05-06T12:30:18Z</time>
      </trkpt>
      <trkpt lat="48.02071" lon="7.08266">
        <ele>470</ele>
        <time>2019-05-06T12:31:18Z</time>
      </trkpt>
      <trkpt lat="48.02003" lon="7.08188">
        <ele>471</ele>
        <time>2019-05-06T12:32:18Z</time>
      </trkpt>
      <trkpt lat="48.01959" lon="7.08115">
        <ele>467</ele>
        <time>2019-05-06T12:33:18Z</time>
      </trkpt>
      <trkpt lat="48.01903" lon="7.08052">
        <ele>465</ele>
        <time>2019-05-06T12:34:18Z</time>
      </trkpt>
      <trkpt lat="48.01862" lon="7.08022">
        <ele>467</ele>
        <time>2019-05-06T12:35:18Z</time>
      </trkpt>
      <trkpt lat="48.01834" lon="7.07997">
        <ele>469</ele>
        <time>2019-05-06T12:36:18Z</time>
      </trkpt>
      <trkpt lat="48.01822" lon="7.07983">
        <ele>469</ele>
        <time>2019-05-06T12:37:18Z</time>
      </trkpt>
      <trkpt lat="48.01813" lon="7.07963">
        <ele>470</ele>
        <time>2019-05-06T12:38:18Z</time>
      </trkpt>
      <trkpt lat="48.0178" lon="7.0791">
        <ele>471</ele>
        <time>2019-05-06T12:39:18Z</time>
      </trkpt>
      <trkpt lat="48.01751" lon="7.07877">
        <ele>472</ele>
        <time>2019-05-06T12:40:18Z</time>
      </trkpt>
      <trkpt lat="48.01678" lon="7.07824">
        <ele>473</ele>
        <time>2019-05-06T12:41:18Z</time>
      </trkpt>
      <trkpt lat="48.01639" lon="7.07787">
        <ele>474</ele>
        <time>2019-05-06T12:42:18Z</time>
      </trkpt>
      <trkpt lat="48.01614" lon="7.07777">
        <ele>475</ele>
        <time>2019-05-06T12:43:18Z</time>
      </trkpt>
      <trkpt lat="48.01589" lon="7.07757">
        <ele>474</ele>
        <time>2019-05-06T12:44:18Z</time>
      </trkpt>
      <trkpt lat="48.01565" lon="7.07724">
        <ele>473</ele>
        <time>2019-05-06T12:45:18Z</time>
      </trkpt>
      <trkpt lat="48.01541" lon="7.07662">
        <ele>470</ele>
        <time>2019-05-06T12:46:18Z</time>
      </trkpt>
      <trkpt lat="48.01504" lon="7.07604">
        <ele>470</ele>
        <time>2019-05-06T12:47:18Z</time>
      </trkpt>
      <trkpt lat="48.01484" lon="7.07522">
        <ele>471</ele>
        <time>2019-05-06T12:48:18Z</time>
      </trkpt>
      <trkpt lat="48.01455" lon="7.07468">
        <ele>473</ele>
        <time>2019-05-06T12:49:18Z</time>
      </trkpt>
      <trkpt lat="48.01405" lon="7.07387">
        <ele>475</ele>
        <time>2019-05-06T12:50:18Z</time>
      </trkpt>
      <trkpt lat="48.01387" lon="7.07382">
        <ele>476</ele>
        <time>2019-05-06T12:51:18Z</time>
      </trkpt>
      <trkpt lat="48.01283" lon="7.07378">
        <ele>479</ele>
        <time>2019-05-06T12:52:18Z</time>
      </trkpt>
      <trkpt lat="48.01258" lon="7.07375">
        <ele>480</ele>
        <time>2019-05-06T12:53:18Z</time>
      </trkpt>
      <trkpt lat="48.0124" lon="7.07366">
        <ele>481</ele>
        <time>2019-05-06T12:54:18Z</time>
      </trkpt>
      <trkpt lat="48.01235" lon="7.07372">
        <ele>481</ele>
        <time>2019-05-06T12:55:18Z</time>
      </trkpt>
      <trkpt lat="48.01208" lon="7.07483">
        <ele>488</ele>
        <time>2019-05-06T12:56:18Z</time>
      </trkpt>
      <trkpt lat="48.01208" lon="7.07511">
        <ele>491</ele>
        <time>2019-05-06T12:57:18Z</time>
      </trkpt>
      <trkpt lat="48.01216" lon="7.07521">
        <ele>491</ele>
        <time>2019-05-06T12:58:18Z</time>
      </trkpt>
      <trkpt lat="48.0123" lon="7.07526">
        <ele>489</ele>
        <time>2019-05-06T12:59:18Z</time>
      </trkpt>
      <trkpt lat="48.01234" lon="7.07537">
        <ele>489</ele>
        <time>2019-05-06T13:00:18Z</time>
      </trkpt>
      <trkpt lat="48.01236" lon="7.07556">
        <ele>491</ele>
        <time>2019-05-06T13:01:18Z</time>
      </trkpt>
      <trkpt lat="48.0123" lon="7.07561">
        <ele>493</ele>
        <time>2019-05-06T13:02:18Z</time>
      </trkpt>
      <trkpt lat="48.01209" lon="7.07553">
        <ele>497</ele>
        <time>2019-05-06T13:03:18Z</time>
      </trkpt>
      <trkpt lat="48.01165" lon="7.07543">
        <ele>504</ele>
        <time>2019-05-06T13:04:18Z</time>
      </trkpt>
      <trkpt lat="48.01133" lon="7.07542">
        <ele>509</ele>
        <time>2019-05-06T13:05:18Z</time>
      </trkpt>
      <trkpt lat="48.01119" lon="7.07544">
        <ele>512</ele>
        <time>2019-05-06T13:06:18Z</time>
      </trkpt>
      <trkpt lat="48.01064" lon="7.07538">
        <ele>520</ele>
        <time>2019-05-06T13:07:18Z</time>
      </trkpt>
      <trkpt lat="48.01013" lon="7.07545">
        <ele>531</ele>
        <time>2019-05-06T13:08:18Z</time>
      </trkpt>
      <trkpt lat="48.01003" lon="7.07539">
        <ele>531</ele>
        <time>2019-05-06T13:09:18Z</time>
      </trkpt>
      <trkpt lat="48.00975" lon="7.07529">
        <ele>534</ele>
        <time>2019-05-06T13:10:18Z</time>
      </trkpt>
      <trkpt lat="48.00932" lon="7.07499">
        <ele>535</ele>
        <time>2019-05-06T13:11:18Z</time>
      </trkpt>
      <trkpt lat="48.00909" lon="7.0749">
        <ele>537</ele>
        <time>2019-05-06T13:12:18Z</time>
      </trkpt>
      <trkpt lat="48.00887" lon="7.07489">
        <ele>539</ele>
        <time>2019-05-06T13:13:18Z</time>
      </trkpt>
      <trkpt lat="48.00856" lon="7.07492">
        <ele>543</ele>
        <time>2019-05-06T13:14:18Z</time>
      </trkpt>
      <trkpt lat="48.0083" lon="7.0749">
        <ele>545</ele>
        <time>2019-05-06T13:15:18Z</time>
      </trkpt>
      <trkpt lat="48.00822" lon="7.07493">
        <ele>546</ele>
        <time>2019-05-06T13:16:18Z</time>
      </trkpt>
      <trkpt lat="48.00777" lon="7.07514">
        <ele>554</ele>
        <time>2019-05-06T13:17:18Z</time>
      </trkpt>
      <trkpt lat="48.00698" lon="7.07561">
        <ele>561</ele>
        <time>2019-05-06T13:18:18Z</time>
      </trkpt>
      <trkpt lat="48.00689" lon="7.07574">
        <ele>563</ele>
        <time>2019-05-06T13:19:18Z</time>
      </trkpt>
      <trkpt lat="48.00674" lon="7.07606">
        <ele>566</ele>
        <time>2019-05-06T13:20:18Z</time>
      </trkpt>
      <trkpt lat="48.00682" lon="7.07592">
        <ele>566</ele>
        <time>2019-05-06T13:21:18Z</time>
      </trkpt>
      <trkpt lat="48.00688" lon="7.07587">
        <ele>566</ele>
        <time>2019-05-06T13:22:18Z</time>
      </trkpt>
      <trkpt lat="48.00705" lon="7.07584">
        <ele>568</ele>
        <time>2019-05-06T13:23:18Z</time>
      </trkpt>
      <trkpt lat="48.00728" lon="7.07589">
        <ele>572</ele>
        <time>2019-05-06T13:24:18Z</time>
      </trkpt>
      <trkpt lat="48.00752" lon="7.07599">
        <ele>577</ele>
        <time>2019-05-06T13:25:18Z</time>
      </trkpt>
      <trkpt lat="48.00799" lon="7.07612">
        <ele>579</ele>
        <time>2019-05-06T13:26:18Z</time>
      </trkpt>
      <trkpt lat="48.00808" lon="7.07618">
        <ele>581</ele>
        <time>2019-05-06T13:27:18Z</time>
      </trkpt>
      <trkpt lat="48.00807" lon="7.07626">
        <ele>583</ele>
        <time>2019-05-06T13:28:18Z</time>
      </trkpt>
      <trkpt lat="48.00788" lon="7.07636">
        <ele>585</ele>
        <time>2019-05-06T13:29:18Z</time>
      </trkpt>
      <trkpt lat="48.00782" lon="7.07644">
        <ele>587</ele>
        <time>2019-05-06T13:30:18Z</time>
      </trkpt>
      <trkpt lat="48.00755" lon="7.07689">
        <ele>594</ele>
        <time>2019-05-06T13:31:18Z</time>
      </trkpt>
      <trkpt lat="48.00742" lon="7.07734">
        <ele>600</ele>
        <time>2019-05-06T13:32:18Z</time>
      </trkpt>
      <trkpt lat="48.00733" lon="7.07816">
        <ele>609</ele>
        <time>2019-05-06T13:33:18Z</time>
      </trkpt>
      <trkpt lat="48.00717" lon="7.07857">
        <ele>610</ele>
        <time>2019-05-06T13:34:18Z</time>
      </trkpt>
      <trkpt lat="48.00712" lon="7.07878">
        <ele>611</ele>
        <time>2019-05-06T13:35:18Z</time>
      </trkpt>
      <trkpt lat="48.0071" lon="7.0791">
        <ele>613</ele>
        <time>2019-05-06T13:36:18Z</time>
      </trkpt>
      <trkpt lat="48.00721" lon="7.08009">
        <ele>624</ele>
        <time>2019-05-06T13:37:18Z</time>
      </trkpt>
      <trkpt lat="48.00715" lon="7.08097">
        <ele>632</ele>
        <time>2019-05-06T13:38:18Z</time>
      </trkpt>
      <trkpt lat="48.00716" lon="7.08109">
        <ele>634</ele>
        <time>2019-05-06T13:39:18Z</time>
      </trkpt>
      <trkpt lat="48.0072" lon="7.08113">
        <ele>635</ele>
        <time>2019-05-06T13:40:18Z</time>
      </trkpt>
      <trkpt lat="48.00732" lon="7.08116">
        <ele>638</ele>
        <time>2019-05-06T13:41:18Z</time>
      </trkpt>
      <trkpt lat="48.00737" lon="7.08133">
        <ele>641</ele>
        <time>2019-05-06T13:42:18Z</time>
      </trkpt>
      <trkpt lat="48.00743" lon="7.08133">
        <ele>643</ele>
        <time>2019-05-06T13:43:18Z</time>
      </trkpt>
      <trkpt lat="48.00749" lon="7.08128">
        <ele>643</ele>
        <time>2019-05-06T13:44:18Z</time>
      </trkpt>
      <trkpt lat="48.00768" lon="7.08092">
        <ele>643</ele>
        <time>2019-05-06T13:45:18Z</time>
      </trkpt>
      <trkpt lat="48.00777" lon="7.08058">
        <ele>642</ele>
        <time>2019-05-06T13:46:18Z</time>
      </trkpt>
      <trkpt lat="48.00782" lon="7.08062">
        <ele>643</ele>
        <time>2019-05-06T13:47:18Z</time>
      </trkpt>
      <trkpt lat="48.00785" lon="7.08079">
        <ele>646</ele>
        <time>2019-05-06T13:48:18Z</time>
      </trkpt>
      <trkpt lat="48.00783" lon="7.08127">
        <ele>651</ele>
        <time>2019-05-06T13:49:18Z</time>
      </trkpt>
      <trkpt lat="48.00779" lon="7.08146">
        <ele>652</ele>
        <time>2019-05-06T13:50:18Z</time>
      </trkpt>
      <trkpt lat="48.00763" lon="7.08191">
        <ele>657</ele>
        <time>2019-05-06T13:51:18Z</time>
      </trkpt>
      <trkpt lat="48.00738" lon="7.08242">
        <ele>665</ele>
        <time>2019-05-06T13:52:18Z</time>
      </trkpt>
      <trkpt lat="48.0072" lon="7.08273">
        <ele>670</ele>
        <time>2019-05-06T13:53:18Z</time>
      </trkpt>
      <trkpt lat="48.00715" lon="7.08278">
        <ele>670</ele>
        <time>2019-05-06T13:54:18Z</time>
      </trkpt>
      <trkpt lat="48.00684" lon="7.08293">
        <ele>668</ele>
        <time>2019-05-06T13:55:18Z</time>
      </trkpt>
      <trkpt lat="48.00636" lon="7.08285">
        <ele>662</ele>
        <time>2019-05-06T13:56:18Z</time>
      </trkpt>
      <trkpt lat="48.00612" lon="7.08278">
        <ele>660</ele>
        <time>2019-05-06T13:57:18Z</time>
      </trkpt>
      <trkpt lat="48.00544" lon="7.08232">
        <ele>653</ele>
        <time>2019-05-06T13:58:18Z</time>
      </trkpt>
      <trkpt lat="48.00424" lon="7.08101">
        <ele>637</ele>
        <time>2019-05-06T13:59:18Z</time>
      </trkpt>
      <trkpt lat="48.004" lon="7.08064">
        <ele>635</ele>
        <time>2019-05-06T14:00:18Z</time>
      </trkpt>
      <trkpt lat="48.00397" lon="7.08047">
        <ele>632</ele>
        <time>2019-05-06T14:01:18Z</time>
      </trkpt>
      <trkpt lat="48.004" lon="7.07992">
        <ele>621</ele>
        <time>2019-05-06T14:02:18Z</time>
      </trkpt>
      <trkpt lat="48.0041" lon="7.07979">
        <ele>617</ele>
        <time>2019-05-06T14:03:18Z</time>
      </trkpt>
      <trkpt lat="48.00432" lon="7.07912">
        <ele>605</ele>
        <time>2019-05-06T14:04:18Z</time>
      </trkpt>
      <trkpt lat="48.00433" lon="7.07874">
        <ele>599</ele>
        <time>2019-05-06T14:05:18Z</time>
      </trkpt>
      <trkpt lat="48.00439" lon="7.07851">
        <ele>594</ele>
        <time>2019-05-06T14:06:18Z</time>
      </trkpt>
      <trkpt lat="48.00437" lon="7.07834">
        <ele>591</ele>
        <time>2019-05-06T14:07:18Z</time>
      </trkpt>
      <trkpt lat="48.00424" lon="7.07805">
        <ele>589</ele>
        <time>2019-05-06T14:08:18Z</time>
      </trkpt>
      <trkpt lat="48.00401" lon="7.07771">
        <ele>586</ele>
        <time>2019-05-06T14:09:18Z</time>
      </trkpt>
      <trkpt lat="48.00377" lon="7.0775">
        <ele>583</ele>
        <time>2019-05-06T14:10:18Z</time>
      </trkpt>
      <trkpt lat="48.00339" lon="7.07739">
        <ele>581</ele>
        <time>2019-05-06T14:11:18Z</time>
      </trkpt>
      <trkpt lat="48.00296" lon="7.07719">
        <ele>579</ele>
        <time>2019-05-06T14:12:18Z</time>
      </trkpt>
      <trkpt lat="48.00279" lon="7.07716">
        <ele>579</ele>
        <time>2019-05-06T14:13:18Z</time>
      </trkpt>
      <trkpt lat="48.00229" lon="7.07701">
        <ele>577</ele>
        <time>2019-05-06T14:14:18Z</time>
      </trkpt>
      <trkpt lat="48.00171" lon="7.07681">
        <ele>572</ele>
        <time>2019-05-06T14:15:18Z</time>
      </trkpt>
      <trkpt lat="48.00117" lon="7.07645">
        <ele>564</ele>
        <time>2019-05-06T14:16:18Z</time>
      </trkpt>
      <trkpt lat="48.0007" lon="7.07627">
        <ele>561</ele>
        <time>2019-05-06T14:17:18Z</time>
      </trkpt>
      <trkpt lat="47.99973" lon="7.07627">
        <ele>560</ele>
        <time>2019-05-06T14:18:18Z</time>
      </trkpt>
      <trkpt lat="47.99944" lon="7.0761">
        <ele>557</ele>
        <time>2019-05-06T14:19:18Z</time>
      </trkpt>
      <trkpt lat="47.99905" lon="7.07606">
        <ele>556</ele>
        <time>2019-05-06T14:20:18Z</time>
      </trkpt>
      <trkpt lat="47.99846" lon="7.07581">
        <ele>553</ele>
        <time>2019-05-06T14:21:18Z</time>
      </trkpt>
      <trkpt lat="47.99813" lon="7.0756">
        <ele>549</ele>
        <time>2019-05-06T14:22:18Z</time>
      </trkpt>
      <trkpt lat="47.99806" lon="7.07548">
        <ele>548</ele>
        <time>2019-05-06T14:23:18Z</time>
      </trkpt>
      <trkpt lat="47.99796" lon="7.07463">
        <ele>542</ele>
        <time>2019-05-06T14:24:18Z</time>
      </trkpt>
      <trkpt lat="47.99791" lon="7.0746">
        <ele>542</ele>
        <time>2019-05-06T14:25:18Z</time>
      </trkpt>
      <trkpt lat="47.99785" lon="7.07461">
        <ele>542</ele>
        <time>2019-05-06T14:26:18Z</time>
      </trkpt>
      <trkpt lat="47.99774" lon="7.07467">
        <ele>542</ele>
        <time>2019-05-06T14:27:18Z</time>
      </trkpt>
      <trkpt lat="47.99762" lon="7.07481">
        <ele>543</ele>
        <time>2019-05-06T14:28:18Z</time>
      </trkpt>
      <trkpt lat="47.99729" lon="7.07531">
        <ele>548</ele>
        <time>2019-05-06T14:29:18Z</time>
      </trkpt>
      <trkpt lat="47.99686" lon="7.07606">
        <ele>554</ele>
        <time>2019-05-06T14:30:18Z</time>
      </trkpt>
      <trkpt lat="47.99632" lon="7.0767">
        <ele>562</ele>
        <time>2019-05-06T14:31:18Z</time>
      </trkpt>
      <trkpt lat="47.99596" lon="7.07719">
        <ele>567</ele>
        <time>2019-05-06T14:32:18Z</time>
      </trkpt>
      <trkpt lat="47.99572" lon="7.07772">
        <ele>569</ele>
        <time>2019-05-06T14:33:18Z</time>
      </trkpt>
      <trkpt lat="47.99554" lon="7.07839">
        <ele>571</ele>
        <time>2019-05-06T14:34:18Z</time>
      </trkpt>
      <trkpt lat="47.99536" lon="7.07873">
        <ele>574</ele>
        <time>2019-05-06T14:35:18Z</time>
      </trkpt>
      <trkpt lat="47.995" lon="7.07915">
        <ele>573</ele>
        <time>2019-05-06T14:36:18Z</time>
      </trkpt>
      <trkpt lat="47.99426" lon="7.0801">
        <ele>586</ele>
        <time>2019-05-06T14:37:18Z</time>
      </trkpt>
      <trkpt lat="47.99352" lon="7.08087">
        <ele>590</ele>
        <time>2019-05-06T14:38:18Z</time>
      </trkpt>
      <trkpt lat="47.99308" lon="7.08118">
        <ele>593</ele>
        <time>2019-05-06T14:39:18Z</time>
      </trkpt>
      <trkpt lat="47.9921" lon="7.08178">
        <ele>600</ele>
        <time>2019-05-06T14:40:18Z</time>
      </trkpt>
      <trkpt lat="47.99158" lon="7.08187">
        <ele>603</ele>
        <time>2019-05-06T14:41:18Z</time>
      </trkpt>
      <trkpt lat="47.99144" lon="7.08193">
        <ele>605</ele>
        <time>2019-05-06T14:42:18Z</time>
      </trkpt>
      <trkpt lat="47.99079" lon="7.08235">
        <ele>608</ele>
        <time>2019-05-06T14:43:18Z</time>
      </trkpt>
      <trkpt lat="47.98987" lon="7.08284">
        <ele>620</ele>
        <time>2019-05-06T14:44:18Z</time>
      </trkpt>
      <trkpt lat="47.98941" lon="7.08302">
        <ele>626</ele>
        <time>2019-05-06T14:45:18Z</time>
      </trkpt>
      <trkpt lat="47.989" lon="7.08314">
        <ele>633</ele>
        <time>2019-05-06T14:46:18Z</time>
      </trkpt>
      <trkpt lat="47.98896" lon="7.08322">
        <ele>635</ele>
        <time>2019-05-06T14:47:18Z</time>
      </trkpt>
      <trkpt lat="47.98899" lon="7.0833">
        <ele>635</ele>
        <time>2019-05-06T14:48:18Z</time>
      </trkpt>
      <trkpt lat="47.98906" lon="7.08333">
        <ele>635</ele>
        <time>2019-05-06T14:49:18Z</time>
      </trkpt>
      <trkpt lat="47.98956" lon="7.08335">
        <ele>631</ele>
        <time>2019-05-06T14:50:18Z</time>
      </trkpt>
      <trkpt lat="47.99012" lon="7.08351">
        <ele>633</ele>
        <time>2019-05-06T14:51:18Z</time>
      </trkpt>
      <trkpt lat="47.99027" lon="7.08372">
        <ele>638</ele>
        <time>2019-05-06T14:52:18Z</time>
      </trkpt>
      <trkpt lat="47.99055" lon="7.08403">
        <ele>641</ele>
        <time>2019-05-06T14:53:18Z</time>
      </trkpt>
      <trkpt lat="47.99084" lon="7.08457">
        <ele>646</ele>
        <time>2019-05-06T14:54:18Z</time>
      </trkpt>
      <trkpt lat="47.99131" lon="7.08521">
        <ele>657</ele>
        <time>2019-05-06T14:55:18Z</time>
      </trkpt>
      <trkpt lat="47.99151" lon="7.08543">
        <ele>658</ele>
        <time>2019-05-06T14:56:18Z</time>
      </trkpt>
      <trkpt lat="47.99158" lon="7.08543">
        <ele>657</ele>
        <time>2019-05-06T14:57:18Z</time>
      </trkpt>
      <trkpt lat="47.99162" lon="7.08535">
        <ele>657</ele>
        <time>2019-05-06T14:58:18Z</time>
      </trkpt>
      <trkpt lat="47.99162" lon="7.08523">
        <ele>656</ele>
        <time>2019-05-06T14:59:18Z</time>
      </trkpt>
      <trkpt lat="47.99142" lon="7.08425">
        <ele>648</ele>
        <time>2019-05-06T15:00:18Z</time>
      </trkpt>
      <trkpt lat="47.99146" lon="7.08408">
        <ele>647</ele>
        <time>2019-05-06T15:01:18Z</time>
      </trkpt>
      <trkpt lat="47.99165" lon="7.08377">
        <ele>645</ele>
        <time>2019-05-06T15:02:18Z</time>
      </trkpt>
      <trkpt lat="47.99171" lon="7.08375">
        <ele>646</ele>
        <time>2019-05-06T15:03:18Z</time>
      </trkpt>
      <trkpt lat="47.99173" lon="7.08381">
        <ele>648</ele>
        <time>2019-05-06T15:04:18Z</time>
      </trkpt>
      <trkpt lat="47.99171" lon="7.08389">
        <ele>649</ele>
        <time>2019-05-06T15:05:18Z</time>
      </trkpt>
      <trkpt lat="47.99161" lon="7.08413">
        <ele>650</ele>
        <time>2019-05-06T15:06:18Z</time>
      </trkpt>
      <trkpt lat="47.99162" lon="7.08427">
        <ele>652</ele>
        <time>2019-05-06T15:07:18Z</time>
      </trkpt>
      <trkpt lat="47.99195" lon="7.08487">
        <ele>664</ele>
        <time>2019-05-06T15:08:18Z</time>
      </trkpt>
      <trkpt lat="47.99212" lon="7.0853">
        <ele>673</ele>
        <time>2019-05-06T15:09:18Z</time>
      </trkpt>
      <trkpt lat="47.9922" lon="7.08557">
        <ele>677</ele>
        <time>2019-05-06T15:10:18Z</time>
      </trkpt>
      <trkpt lat="47.99228" lon="7.08602">
        <ele>682</ele>
        <time>2019-05-06T15:11:18Z</time>
      </trkpt>
      <trkpt lat="47.99222" lon="7.08702">
        <ele>692</ele>
        <time>2019-05-06T15:12:18Z</time>
      </trkpt>
      <trkpt lat="47.99223" lon="7.08728">
        <ele>696</ele>
        <time>2019-05-06T15:13:18Z</time>
      </trkpt>
      <trkpt lat="47.99234" lon="7.08763">
        <ele>701</ele>
        <time>2019-05-06T15:14:18Z</time>
      </trkpt>
      <trkpt lat="47.9925" lon="7.08791">
        <ele>703</ele>
        <time>2019-05-06T15:15:18Z</time>
      </trkpt>
      <trkpt lat="47.99274" lon="7.08855">
        <ele>716</ele>
        <time>2019-05-06T15:16:18Z</time>
      </trkpt>
      <trkpt lat="47.99276" lon="7.08874">
        <ele>718</ele>
        <time>2019-05-06T15:17:18Z</time>
      </trkpt>
      <trkpt lat="47.99274" lon="7.08919">
        <ele>720</ele>
        <time>2019-05-06T15:18:18Z</time>
      </trkpt>
      <trkpt lat="47.99278" lon="7.08936">
        <ele>725</ele>
        <time>2019-05-06T15:19:18Z</time>
      </trkpt>
      <trkpt lat="47.99273" lon="7.08942">
        <ele>724</ele>
        <time>2019-05-06T15:20:18Z</time>
      </trkpt>
      <trkpt lat="47.99284" lon="7.08928">
        <ele>726</ele>
        <time>2019-05-06T15:21:18Z</time>
      </trkpt>
      <trkpt lat="47.99288" lon="7.08917">
        <ele>725</ele>
        <time>2019-05-06T15:22:18Z</time>
      </trkpt>
      <trkpt lat="47.99292" lon="7.08899">
        <ele>726</ele>
        <time>2019-05-06T15:23:18Z</time>
      </trkpt>
      <trkpt lat="47.99292" lon="7.08883">
        <ele>725</ele>
        <time>2019-05-06T15:24:18Z</time>
      </trkpt>
      <trkpt lat="47.99289" lon="7.08864">
        <ele>723</ele>
        <time>2019-05-06T15:25:18Z</time>
      </trkpt>
      <trkpt lat="47.99279" lon="7.08846">
        <ele>717</ele>
        <time>2019-05-06T15:26:18Z</time>
      </trkpt>
      <trkpt lat="47.99268" lon="7.08792">
        <ele>712</ele>
        <time>2019-05-06T15:27:18Z</time>
      </trkpt>
      <trkpt lat="47.99261" lon="7.08725">
        <ele>705</ele>
        <time>2019-05-06T15:28:18Z</time>
      </trkpt>
      <trkpt lat="47.99267" lon="7.0871">
        <ele>706</ele>
        <time>2019-05-06T15:29:18Z</time>
      </trkpt>
      <trkpt lat="47.99297" lon="7.08666">
        <ele>714</ele>
        <time>2019-05-06T15:30:18Z</time>
      </trkpt>
      <trkpt lat="47.99298" lon="7.08608">
        <ele>709</ele>
        <time>2019-05-06T15:31:18Z</time>
      </trkpt>
      <trkpt lat="47.99302" lon="7.08599">
        <ele>710</ele>
        <time>2019-05-06T15:32:18Z</time>
      </trkpt>
      <trkpt lat="47.99321" lon="7.08584">
        <ele>716</ele>
        <time>2019-05-06T15:33:18Z</time>
      </trkpt>
      <trkpt lat="47.99343" lon="7.08586">
        <ele>724</ele>
        <time>2019-05-06T15:34:18Z</time>
      </trkpt>
      <trkpt lat="47.99362" lon="7.08593">
        <ele>729</ele>
        <time>2019-05-06T15:35:18Z</time>
      </trkpt>
      <trkpt lat="47.99376" lon="7.08592">
        <ele>732</ele>
        <time>2019-05-06T15:36:18Z</time>
      </trkpt>
      <trkpt lat="47.994" lon="7.08575">
        <ele>734</ele>
        <time>2019-05-06T15:37:18Z</time>
      </trkpt>
      <trkpt lat="47.99437" lon="7.08532">
        <ele>735</ele>
        <time>2019-05-06T15:38:18Z</time>
      </trkpt>
      <trkpt lat="47.99472" lon="7.08485">
        <ele>734</ele>
        <time>2019-05-06T15:39:18Z</time>
      </trkpt>
      <trkpt lat="47.99509" lon="7.08429">
        <ele>731</ele>
        <time>2019-05-06T15:40:18Z</time>
      </trkpt>
      <trkpt lat="47.99517" lon="7.0842">
        <ele>730</ele>
        <time>2019-05-06T15:41:18Z</time>
      </trkpt>
      <trkpt lat="47.99534" lon="7.08412">
        <ele>731</ele>
        <time>2019-05-06T15:42:18Z</time>
      </trkpt>
      <trkpt lat="47.99555" lon="7.08414">
        <ele>734</ele>
        <time>2019-05-06T15:43:18Z</time>
      </trkpt>
      <trkpt lat="47.99604" lon="7.08436">
        <ele>743</ele>
        <time>2019-05-06T15:44:18Z</time>
      </trkpt>
      <trkpt lat="47.99617" lon="7.08439">
        <ele>743</ele>
        <time>2019-05-06T15:45:18Z</time>
      </trkpt>
      <trkpt lat="47.99696" lon="7.08434">
        <ele>744</ele>
        <time>2019-05-06T15:46:18Z</time>
      </trkpt>
      <trkpt lat="47.99738" lon="7.08425">
        <ele>748</ele>
        <time>2019-05-06T15:47:18Z</time>
      </trkpt>
      <trkpt lat="47.99844" lon="7.08334">
        <ele>750</ele>
        <time>2019-05-06T15:48:18Z</time>
      </trkpt>
      <trkpt lat="47.9989" lon="7.08308">
        <ele>749</ele>
        <time>2019-05-06T15:49:18Z</time>
      </trkpt>
      <trkpt lat="47.99937" lon="7.0829">
        <ele>746</ele>
        <time>2019-05-06T15:50:18Z</time>
      </trkpt>
      <trkpt lat="48" lon="7.08285">
        <ele>742</ele>
        <time>2019-05-06T15:51:18Z</time>
      </trkpt>
      <trkpt lat="48.00055" lon="7.08266">
        <ele>737</ele>
        <time>2019-05-06T15:52:18Z</time>
      </trkpt>
      <trkpt lat="48.00087" lon="7.0826">
        <ele>736</ele>
        <time>2019-05-06T15:53:18Z</time>
      </trkpt>
      <trkpt lat="48.00115" lon="7.0827">
        <ele>734</ele>
        <time>2019-05-06T15:54:18Z</time>
      </trkpt>
      <trkpt lat="48.00154" lon="7.08307">
        <ele>735</ele>
        <time>2019-05-06T15:55:18Z</time>
      </trkpt>
      <trkpt lat="48.00212" lon="7.08446">
        <ele>759</ele>
        <time>2019-05-06T15:56:18Z</time>
      </trkpt>
      <trkpt lat="48.00224" lon="7.08445">
        <ele>756</ele>
        <time>2019-05-06T15:57:18Z</time>
      </trkpt>
      <trkpt lat="48.00253" lon="7.08468">
        <ele>756</ele>
        <time>2019-05-06T15:58:18Z</time>
      </trkpt>
      <trkpt lat="48.00282" lon="7.08508">
        <ele>765</ele>
        <time>2019-05-06T15:59:18Z</time>
      </trkpt>
      <trkpt lat="48.00294" lon="7.08519">
        <ele>766</ele>
        <time>2019-05-06T16:00:18Z</time>
      </trkpt>
      <trkpt lat="48.00345" lon="7.08548">
        <ele>769</ele>
        <time>2019-05-06T16:01:18Z</time>
      </trkpt>
      <trkpt lat="48.00341" lon="7.08554">
        <ele>772</ele>
        <time>2019-05-06T16:02:18Z</time>
      </trkpt>
      <trkpt lat="48.003" lon="7.0856">
        <ele>778</ele>
        <time>2019-05-06T16:03:18Z</time>
      </trkpt>
      <trkpt lat="48.00244" lon="7.08536">
        <ele>778</ele>
        <time>2019-05-06T16:04:18Z</time>
      </trkpt>
      <trkpt lat="48.00198" lon="7.0852">
        <ele>784</ele>
        <time>2019-05-06T16:05:18Z</time>
      </trkpt>
      <trkpt lat="48.00163" lon="7.085">
        <ele>788</ele>
        <time>2019-05-06T16:06:18Z</time>
      </trkpt>
      <trkpt lat="48.0011" lon="7.08477">
        <ele>790</ele>
        <time>2019-05-06T16:07:18Z</time>
      </trkpt>
      <trkpt lat="48.00085" lon="7.08472">
        <ele>793</ele>
        <time>2019-05-06T16:08:18Z</time>
      </trkpt>
      <trkpt lat="48.00075" lon="7.08475">
        <ele>795</ele>
        <time>2019-05-06T16:09:18Z</time>
      </trkpt>
      <trkpt lat="48.00023" lon="7.08501">
        <ele>804</ele>
        <time>2019-05-06T16:10:18Z</time>
      </trkpt>
      <trkpt lat="48.00001" lon="7.08504">
        <ele>805</ele>
        <time>2019-05-06T16:11:18Z</time>
      </trkpt>
      <trkpt lat="47.99955" lon="7.08517">
        <ele>809</ele>
        <time>2019-05-06T16:12:18Z</time>
      </trkpt>
      <trkpt lat="47.99923" lon="7.08527">
        <ele>812</ele>
        <time>2019-05-06T16:13:18Z</time>
      </trkpt>
      <trkpt lat="47.99914" lon="7.08533">
        <ele>813</ele>
        <time>2019-05-06T16:14:18Z</time>
      </trkpt>
      <trkpt lat="47.99893" lon="7.08551">
        <ele>815</ele>
        <time>2019-05-06T16:15:18Z</time>
      </trkpt>
      <trkpt lat="47.99885" lon="7.08561">
        <ele>816</ele>
        <time>2019-05-06T16:16:18Z</time>
      </trkpt>
      <trkpt lat="47.99837" lon="7.08633">
        <ele>828</ele>
        <time>2019-05-06T16:17:18Z</time>
      </trkpt>
      <trkpt lat="47.99824" lon="7.08659">
        <ele>832</ele>
        <time>2019-05-06T16:18:18Z</time>
      </trkpt>
      <trkpt lat="47.99792" lon="7.08694">
        <ele>831</ele>
        <time>2019-05-06T16:19:18Z</time>
      </trkpt>
      <trkpt lat="47.99754" lon="7.08747">
        <ele>832</ele>
        <time>2019-05-06T16:20:18Z</time>
      </trkpt>
      <trkpt lat="47.9974" lon="7.08772">
        <ele>834</ele>
        <time>2019-05-06T16:21:18Z</time>
      </trkpt>
      <trkpt lat="47.99746" lon="7.08826">
        <ele>842</ele>
        <time>2019-05-06T16:22:18Z</time>
      </trkpt>
      <trkpt lat="47.99743" lon="7.08867">
        <ele>849</ele>
        <time>2019-05-06T16:23:18Z</time>
      </trkpt>
      <trkpt lat="47.99735" lon="7.08882">
        <ele>850</ele>
        <time>2019-05-06T16:24:18Z</time>
      </trkpt>
      <trkpt lat="47.99723" lon="7.08889">
        <ele>850</ele>
        <time>2019-05-06T16:25:18Z</time>
      </trkpt>
      <trkpt lat="47.99689" lon="7.08921">
        <ele>852</ele>
        <time>2019-05-06T16:26:18Z</time>
      </trkpt>
      <trkpt lat="47.99656" lon="7.08973">
        <ele>857</ele>
        <time>2019-05-06T16:27:18Z</time>
      </trkpt>
      <trkpt lat="47.99634" lon="7.09063">
        <ele>867</ele>
        <time>2019-05-06T16:28:18Z</time>
      </trkpt>
      <trkpt lat="47.99624" lon="7.09125">
        <ele>873</ele>
        <time>2019-05-06T16:29:18Z</time>
      </trkpt>
      <trkpt lat="47.99631" lon="7.09174">
        <ele>878</ele>
        <time>2019-05-06T16:30:18Z</time>
      </trkpt>
      <trkpt lat="47.9964" lon="7.09213">
        <ele>880</ele>
        <time>2019-05-06T16:31:18Z</time>
      </trkpt>
      <trkpt lat="47.9964" lon="7.09243">
        <ele>880</ele>
        <time>2019-05-06T16:32:18Z</time>
      </trkpt>
      <trkpt lat="47.99622" lon="7.09295">
        <ele>877</ele>
        <time>2019-05-06T16:33:18Z</time>
      </trkpt>
      <trkpt lat="47.9962" lon="7.09333">
        <ele>876</ele>
        <time>2019-05-06T16:34:18Z</time>
      </trkpt>
      <trkpt lat="47.99612" lon="7.09373">
        <ele>879</ele>
        <time>2019-05-06T16:35:18Z</time>
      </trkpt>
      <trkpt lat="47.99599" lon="7.09497">
        <ele>900</ele>
        <time>2019-05-06T16:36:18Z</time>
      </trkpt>
      <trkpt lat="47.99589" lon="7.09547">
        <ele>912</ele>
        <time>2019-05-06T16:37:18Z</time>
      </trkpt>
      <trkpt lat="47.99575" lon="7.09578">
        <ele>918</ele>
        <time>2019-05-06T16:38:18Z</time>
      </trkpt>
      <trkpt lat="47.99569" lon="7.09601">
        <ele>922</ele>
        <time>2019-05-06T16:39:18Z</time>
      </trkpt>
      <trkpt lat="47.99558" lon="7.09625">
        <ele>926</ele>
        <time>2019-05-06T16:40:18Z</time>
      </trkpt>
      <trkpt lat="47.99548" lon="7.09642">
        <ele>929</ele>
        <time>2019-05-06T16:41:18Z</time>
      </trkpt>
      <trkpt lat="47.99534" lon="7.09651">
        <ele>930</ele>
        <time>2019-05-06T16:42:18Z</time>
      </trkpt>
      <trkpt lat="47.99516" lon="7.09667">
        <ele>932</ele>
        <time>2019-05-06T16:43:18Z</time>
      </trkpt>
      <trkpt lat="47.99475" lon="7.09679">
        <ele>932</ele>
        <time>2019-05-06T16:44:18Z</time>
      </trkpt>
      <trkpt lat="47.9943" lon="7.09688">
        <ele>931</ele>
        <time>2019-05-06T16:45:18Z</time>
      </trkpt>
      <trkpt lat="47.99424" lon="7.09693">
        <ele>931</ele>
        <time>2019-05-06T16:46:18Z</time>
      </trkpt>
      <trkpt lat="47.99418" lon="7.09704">
        <ele>933</ele>
        <time>2019-05-06T16:47:18Z</time>
      </trkpt>
      <trkpt lat="47.99386" lon="7.09812">
        <ele>949</ele>
        <time>2019-05-06T16:48:18Z</time>
      </trkpt>
      <trkpt lat="47.99358" lon="7.09847">
        <ele>954</ele>
        <time>2019-05-06T16:49:18Z</time>
      </trkpt>
      <trkpt lat="47.9935" lon="7.09854">
        <ele>955</ele>
        <time>2019-05-06T16:50:18Z</time>
      </trkpt>
      <trkpt lat="47.99331" lon="7.09861">
        <ele>954</ele>
        <time>2019-05-06T16:51:18Z</time>
      </trkpt>
      <trkpt lat="47.99286" lon="7.09866">
        <ele>955</ele>
        <time>2019-05-06T16:52:18Z</time>
      </trkpt>
      <trkpt lat="47.99252" lon="7.09876">
        <ele>958</ele>
        <time>2019-05-06T16:53:18Z</time>
      </trkpt>
      <trkpt lat="47.99223" lon="7.09897">
        <ele>963</ele>
        <time>2019-05-06T16:54:18Z</time>
      </trkpt>
      <trkpt lat="47.99157" lon="7.09925">
        <ele>965</ele>
        <time>2019-05-06T16:55:18Z</time>
      </trkpt>
      <trkpt lat="47.99142" lon="7.09941">
        <ele>965</ele>
        <time>2019-05-06T16:56:18Z</time>
      </trkpt>
      <trkpt lat="47.99123" lon="7.09979">
        <ele>967</ele>
        <time>2019-05-06T16:57:18Z</time>
      </trkpt>
      <trkpt lat="47.99089" lon="7.1009">
        <ele>975</ele>
        <time>2019-05-06T16:58:18Z</time>
      </trkpt>
      <trkpt lat="47.99083" lon="7.10121">
        <ele>980</ele>
        <time>2019-05-06T16:59:18Z</time>
      </trkpt>
      <trkpt lat="47.99073" lon="7.10153">
        <ele>985</ele>
        <time>2019-05-06T17:00:18Z</time>
      </trkpt>
      <trkpt lat="47.99035" lon="7.10224">
        <ele>989</ele>
        <time>2019-05-06T17:01:18Z</time>
      </trkpt>
      <trkpt lat="47.99019" lon="7.10248">
        <ele>989</ele>
        <time>2019-05-06T17:02:18Z</time>
      </trkpt>
      <trkpt lat="47.98988" lon="7.10353">
        <ele>997</ele>
        <time>2019-05-06T17:03:18Z</time>
      </trkpt>
      <trkpt lat="47.98971" lon="7.10398">
        <ele>997</ele>
        <time>2019-05-06T17:04:18Z</time>
      </trkpt>
      <trkpt lat="47.98954" lon="7.10492">
        <ele>1003</ele>
        <time>2019-05-06T17:05:18Z</time>
      </trkpt>
      <trkpt lat="47.98955" lon="7.10502">
        <ele>1004</ele>
        <time>2019-05-06T17:06:18Z</time>
      </trkpt>
      <trkpt lat="47.98952" lon="7.10496">
        <ele>1003</ele>
        <time>2019-05-06T17:07:18Z</time>
      </trkpt>
      <trkpt lat="47.98928" lon="7.10578">
        <ele>1005</ele>
        <time>2019-05-06T17:08:18Z</time>
      </trkpt>
      <trkpt lat="47.98915" lon="7.10599">
        <ele>1005</ele>
        <time>2019-05-06T17:09:18Z</time>
      </trkpt>
      <trkpt lat="47.9887" lon="7.10656">
        <ele>1006</ele>
        <time>2019-05-06T17:10:18Z</time>
      </trkpt>
      <trkpt lat="47.98857" lon="7.10668">
        <ele>1006</ele>
        <time>2019-05-06T17:11:18Z</time>
      </trkpt>
      <trkpt lat="47.98814" lon="7.10692">
        <ele>1002</ele>
        <time>2019-05-06T17:12:18Z</time>
      </trkpt>
      <trkpt lat="47.98792" lon="7.10729">
        <ele>1003</ele>
        <time>2019-05-06T17:13:18Z</time>
      </trkpt>
      <trkpt lat="47.98766" lon="7.10781">
        <ele>1006</ele>
        <time>2019-05-06T17:14:18Z</time>
      </trkpt>
      <trkpt lat="47.9875" lon="7.10801">
        <ele>1006</ele>
        <time>2019-05-06T17:15:18Z</time>
      </trkpt>
      <trkpt lat="47.98674" lon="7.10874">
        <ele>1003</ele>
        <time>2019-05-06T17:16:18Z</time>
      </trkpt>
      <trkpt lat="47.9866" lon="7.10898">
        <ele>1002</ele>
        <time>2019-05-06T17:17:18Z</time>
      </trkpt>
      <trkpt lat="47.98652" lon="7.10922">
        <ele>1001</ele>
        <time>2019-05-06T17:18:18Z</time>
      </trkpt>
      <trkpt lat="47.9867" lon="7.11007">
        <ele>1008</ele>
        <time>2019-05-06T17:19:18Z</time>
      </trkpt>
      <trkpt lat="47.98683" lon="7.11131">
        <ele>1017</ele>
        <time>2019-05-06T17:20:18Z</time>
      </trkpt>
      <trkpt lat="47.98678" lon="7.11163">
        <ele>1018</ele>
        <time>2019-05-06T17:21:18Z</time>
      </trkpt>
      <trkpt lat="47.9867" lon="7.1118">
        <ele>1018</ele>
        <time>2019-05-06T17:22:18Z</time>
      </trkpt>
      <trkpt lat="47.98651" lon="7.11189">
        <ele>1017</ele>
        <time>2019-05-06T17:23:18Z</time>
      </trkpt>
      <trkpt lat="47.98593" lon="7.11198">
        <ele>1011</ele>
        <time>2019-05-06T17:24:18Z</time>
      </trkpt>
      <trkpt lat="47.98497" lon="7.11258">
        <ele>1009</ele>
        <time>2019-05-06T17:25:18Z</time>
      </trkpt>
      <trkpt lat="47.98483" lon="7.11265">
        <ele>1010</ele>
        <time>2019-05-06T17:26:18Z</time>
      </trkpt>
      <trkpt lat="47.98436" lon="7.11279">
        <ele>1011</ele>
        <time>2019-05-06T17:27:18Z</time>
      </trkpt>
      <trkpt lat="47.9842" lon="7.1128">
        <ele>1010</ele>
        <time>2019-05-06T17:28:18Z</time>
      </trkpt>
      <trkpt lat="47.9841" lon="7.11276">
        <ele>1012</ele>
        <time>2019-05-06T17:29:18Z</time>
      </trkpt>
      <trkpt lat="47.984" lon="7.11251">
        <ele>1013</ele>
        <time>2019-05-06T17:30:18Z</time>
      </trkpt>
      <trkpt lat="47.98398" lon="7.11235">
        <ele>1013</ele>
        <time>2019-05-06T17:31:18Z</time>
      </trkpt>
      <trkpt lat="47.98399" lon="7.11199">
        <ele>1010</ele>
        <time>2019-05-06T17:32:18Z</time>
      </trkpt>
      <trkpt lat="47.98403" lon="7.11159">
        <ele>1007</ele>
        <time>2019-05-06T17:33:18Z</time>
      </trkpt>
      <trkpt lat="47.98399" lon="7.11143">
        <ele>1006</ele>
        <time>2019-05-06T17:34:18Z</time>
      </trkpt>
      <trkpt lat="47.98394" lon="7.11134">
        <ele>1006</ele>
        <time>2019-05-06T17:35:18Z</time>
      </trkpt>
      <trkpt lat="47.98386" lon="7.11129">
        <ele>1006</ele>
        <time>2019-05-06T17:36:18Z</time>
      </trkpt>
      <trkpt lat="47.98374" lon="7.1113">
        <ele>1009</ele>
        <time>2019-05-06T17:37:18Z</time>
      </trkpt>
      <trkpt lat="47.98337" lon="7.11146">
        <ele>1020</ele>
        <time>2019-05-06T17:38:18Z</time>
      </trkpt>
      <trkpt lat="47.9829" lon="7.11159">
        <ele>1023</ele>
        <time>2019-05-06T17:39:18Z</time>
      </trkpt>
      <trkpt lat="47.98276" lon="7.11166">
        <ele>1024</ele>
        <time>2019-05-06T17:40:18Z</time>
      </trkpt>
      <trkpt lat="47.98261" lon="7.11179">
        <ele>1026</ele>
        <time>2019-05-06T17:41:18Z</time>
      </trkpt>
      <trkpt lat="47.98252" lon="7.11194">
        <ele>1029</ele>
        <time>2019-05-06T17:42:18Z</time>
      </trkpt>
      <trkpt lat="47.9823" lon="7.11251">
        <ele>1041</ele>
        <time>2019-05-06T17:43:18Z</time>
      </trkpt>
      <trkpt lat="47.98222" lon="7.11258">
        <ele>1042</ele>
        <time>2019-05-06T17:44:18Z</time>
      </trkpt>
      <trkpt lat="47.98212" lon="7.1123">
        <ele>1037</ele>
        <time>2019-05-06T17:45:18Z</time>
      </trkpt>
      <trkpt lat="47.98193" lon="7.11195">
        <ele>1032</ele>
        <time>2019-05-06T17:46:18Z</time>
      </trkpt>
      <trkpt lat="47.98156" lon="7.11148">
        <ele>1032</ele>
        <time>2019-05-06T17:47:18Z</time>
      </trkpt>
      <trkpt lat="47.98119" lon="7.11088">
        <ele>1044</ele>
        <time>2019-05-06T17:48:18Z</time>
      </trkpt>
      <trkpt lat="47.98112" lon="7.11071">
        <ele>1048</ele>
        <time>2019-05-06T17:49:18Z</time>
      </trkpt>
      <trkpt lat="47.98106" lon="7.11018">
        <ele>1051</ele>
        <time>2019-05-06T17:50:18Z</time>
      </trkpt>
      <trkpt lat="47.98149" lon="7.10846">
        <ele>1036</ele>
        <time>2019-05-06T17:51:18Z</time>
      </trkpt>
      <trkpt lat="47.98154" lon="7.10739">
        <ele>1028</ele>
        <time>2019-05-06T17:52:18Z</time>
      </trkpt>
      <trkpt lat="47.98157" lon="7.10711">
        <ele>1025</ele>
        <time>2019-05-06T17:53:18Z</time>
      </trkpt>
      <trkpt lat="47.98171" lon="7.10643">
        <ele>1013</ele>
        <time>2019-05-06T17:54:18Z</time>
      </trkpt>
      <trkpt lat="47.98175" lon="7.10596">
        <ele>1006</ele>
        <time>2019-05-06T17:55:18Z</time>
      </trkpt>
      <trkpt lat="47.98171" lon="7.1053">
        <ele>998</ele>
        <time>2019-05-06T17:56:18Z</time>
      </trkpt>
      <trkpt lat="47.98137" lon="7.10453">
        <ele>1003</ele>
        <time>2019-05-06T17:57:18Z</time>
      </trkpt>
      <trkpt lat="47.98116" lon="7.10393">
        <ele>1005</ele>
        <time>2019-05-06T17:58:18Z</time>
      </trkpt>
      <trkpt lat="47.98096" lon="7.10313">
        <ele>1008</ele>
        <time>2019-05-06T17:59:18Z</time>
      </trkpt>
      <trkpt lat="47.98086" lon="7.10256">
        <ele>1011</ele>
        <time>2019-05-06T18:00:18Z</time>
      </trkpt>
      <trkpt lat="47.98083" lon="7.10207">
        <ele>1008</ele>
        <time>2019-05-06T18:01:18Z</time>
      </trkpt>
      <trkpt lat="47.98085" lon="7.10161">
        <ele>1002</ele>
        <time>2019-05-06T18:02:18Z</time>
      </trkpt>
      <trkpt lat="47.98075" lon="7.10085">
        <ele>991</ele>
        <time>2019-05-06T18:03:18Z</time>
      </trkpt>
      <trkpt lat="47.98044" lon="7.09937">
        <ele>988</ele>
        <time>2019-05-06T18:04:18Z</time>
      </trkpt>
      <trkpt lat="47.98051" lon="7.09835">
        <ele>977</ele>
        <time>2019-05-06T18:05:18Z</time>
      </trkpt>
      <trkpt lat="47.98047" lon="7.09822">
        <ele>976</ele>
        <time>2019-05-06T18:06:18Z</time>
      </trkpt>
      <trkpt lat="47.98031" lon="7.09808">
        <ele>975</ele>
        <time>2019-05-06T18:07:18Z</time>
      </trkpt>
      <trkpt lat="47.97981" lon="7.09796">
        <ele>976</ele>
        <time>2019-05-06T18:08:18Z</time>
      </trkpt>
      <trkpt lat="47.97922" lon="7.09797">
        <ele>977</ele>
        <time>2019-05-06T18:09:18Z</time>
      </trkpt>
      <trkpt lat="47.97854" lon="7.09783">
        <ele>978</ele>
        <time>2019-05-06T18:10:18Z</time>
      </trkpt>
      <trkpt lat="47.97831" lon="7.09785">
        <ele>980</ele>
        <time>2019-05-06T18:11:18Z</time>
      </trkpt>
      <trkpt lat="47.97784" lon="7.0977">
        <ele>981</ele>
        <time>2019-05-06T18:12:18Z</time>
      </trkpt>
      <trkpt lat="47.97717" lon="7.09763">
        <ele>987</ele>
        <time>2019-05-06T18:13:18Z</time>
      </trkpt>
      <trkpt lat="47.97617" lon="7.09743">
        <ele>997</ele>
        <time>2019-05-06T18:14:18Z</time>
      </trkpt>
      <trkpt lat="47.97606" lon="7.0974">
        <ele>998</ele>
        <time>2019-05-06T18:15:18Z</time>
      </trkpt>
      <trkpt lat="47.97555" lon="7.09712">
        <ele>1001</ele>
        <time>2019-05-06T18:16:18Z</time>
      </trkpt>
      <trkpt lat="47.97546" lon="7.09713">
        <ele>1003</ele>
        <time>2019-05-06T18:17:18Z</time>
      </trkpt>
      <trkpt lat="47.97494" lon="7.09695">
        <ele>1008</ele>
        <time>2019-05-06T18:18:18Z</time>
      </trkpt>
      <trkpt lat="47.97398" lon="7.09673">
        <ele>1015</ele>
        <time>2019-05-06T18:19:18Z</time>
      </trkpt>
      <trkpt lat="47.97367" lon="7.09668">
        <ele>1022</ele>
        <time>2019-05-06T18:20:18Z</time>
      </trkpt>
      <trkpt lat="47.97255" lon="7.09612">
        <ele>1035</ele>
        <time>2019-05-06T18:21:18Z</time>
      </trkpt>
      <trkpt lat="47.97209" lon="7.09592">
        <ele>1044</ele>
        <time>2019-05-06T18:22:18Z</time>
      </trkpt>
      <trkpt lat="47.97167" lon="7.09566">
        <ele>1053</ele>
        <time>2019-05-06T18:23:18Z</time>
      </trkpt>
      <trkpt lat="47.97147" lon="7.09541">
        <ele>1056</ele>
        <time>2019-05-06T18:24:18Z</time>
      </trkpt>
      <trkpt lat="47.97142" lon="7.09541">
        <ele>1057</ele>
        <time>2019-05-06T18:25:18Z</time>
      </trkpt>
      <trkpt lat="47.9715" lon="7.09569">
        <ele>1058</ele>
        <time>2019-05-06T18:26:18Z</time>
      </trkpt>
      <trkpt lat="47.97173" lon="7.09615">
        <ele>1057</ele>
        <time>2019-05-06T18:27:18Z</time>
      </trkpt>
      <trkpt lat="47.97197" lon="7.09647">
        <ele>1056</ele>
        <time>2019-05-06T18:28:18Z</time>
      </trkpt>
      <trkpt lat="47.97225" lon="7.0967">
        <ele>1053</ele>
        <time>2019-05-06T18:29:18Z</time>
      </trkpt>
      <trkpt lat="47.97234" lon="7.09683">
        <ele>1053</ele>
        <time>2019-05-06T18:30:18Z</time>
      </trkpt>
      <trkpt lat="47.9726" lon="7.09742">
        <ele>1057</ele>
        <time>2019-05-06T18:31:18Z</time>
      </trkpt>
      <trkpt lat="47.973" lon="7.09793">
        <ele>1060</ele>
        <time>2019-05-06T18:32:18Z</time>
      </trkpt>
      <trkpt lat="47.97353" lon="7.09851">
        <ele>1063</ele>
        <time>2019-05-06T18:33:18Z</time>
      </trkpt>
      <trkpt lat="47.97365" lon="7.09861">
        <ele>1062</ele>
        <time>2019-05-06T18:34:18Z</time>
      </trkpt>
      <trkpt lat="47.974" lon="7.09879">
        <ele>1058</ele>
        <time>2019-05-06T18:35:18Z</time>
      </trkpt>
      <trkpt lat="47.97441" lon="7.09909">
        <ele>1056</ele>
        <time>2019-05-06T18:36:18Z</time>
      </trkpt>
      <trkpt lat="47.97476" lon="7.0993">
        <ele>1054</ele>
        <time>2019-05-06T18:37:18Z</time>
      </trkpt>
      <trkpt lat="47.97518" lon="7.09948">
        <ele>1051</ele>
        <time>2019-05-06T18:38:18Z</time>
      </trkpt>
      <trkpt lat="47.9758" lon="7.0996">
        <ele>1044</ele>
        <time>2019-05-06T18:39:18Z</time>
      </trkpt>
      <trkpt lat="47.97628" lon="7.09973">
        <ele>1044</ele>
        <time>2019-05-06T18:40:18Z</time>
      </trkpt>
      <trkpt lat="47.97756" lon="7.09972">
        <ele>1040</ele>
        <time>2019-05-06T18:41:18Z</time>
      </trkpt>
      <trkpt lat="47.97808" lon="7.09984">
        <ele>1041</ele>
        <time>2019-05-06T18:42:18Z</time>
      </trkpt>
      <trkpt lat="47.97868" lon="7.09983">
        <ele>1035</ele>
        <time>2019-05-06T18:43:18Z</time>
      </trkpt>
      <trkpt lat="47.97881" lon="7.09986">
        <ele>1034</ele>
        <time>2019-05-06T18:44:18Z</time>
      </trkpt>
      <trkpt lat="47.97921" lon="7.10003">
        <ele>1034</ele>
        <time>2019-05-06T18:45:18Z</time>
      </trkpt>
      <trkpt lat="47.97926" lon="7.10008">
        <ele>1034</ele>
        <time>2019-05-06T18:46:18Z</time>
      </trkpt>
      <trkpt lat="47.97936" lon="7.10022">
        <ele>1035</ele>
        <time>2019-05-06T18:47:18Z</time>
      </trkpt>
      <trkpt lat="47.97965" lon="7.10078">
        <ele>1039</ele>
        <time>2019-05-06T18:48:18Z</time>
      </trkpt>
      <trkpt lat="47.97998" lon="7.10161">
        <ele>1037</ele>
        <time>2019-05-06T18:49:18Z</time>
      </trkpt>
      <trkpt lat="47.98007" lon="7.10206">
        <ele>1037</ele>
        <time>2019-05-06T18:50:18Z</time>
      </trkpt>
      <trkpt lat="47.98011" lon="7.10271">
        <ele>1040</ele>
        <time>2019-05-06T18:51:18Z</time>
      </trkpt>
      <trkpt lat="47.98036" lon="7.1042">
        <ele>1045</ele>
        <time>2019-05-06T18:52:18Z</time>
      </trkpt>
      <trkpt lat="47.98043" lon="7.10441">
        <ele>1046</ele>
        <time>2019-05-06T18:53:18Z</time>
      </trkpt>
      <trkpt lat="47.98103" lon="7.10567">
        <ele>1038</ele>
        <time>2019-05-06T18:54:18Z</time>
      </trkpt>
      <trkpt lat="47.98111" lon="7.10595">
        <ele>1037</ele>
        <time>2019-05-06T18:55:18Z</time>
      </trkpt>
      <trkpt lat="47.9812" lon="7.10648">
        <ele>1038</ele>
        <time>2019-05-06T18:56:18Z</time>
      </trkpt>
      <trkpt lat="47.98119" lon="7.10729">
        <ele>1044</ele>
        <time>2019-05-06T18:57:18Z</time>
      </trkpt>
      <trkpt lat="47.98124" lon="7.10786">
        <ele>1046</ele>
        <time>2019-05-06T18:58:18Z</time>
      </trkpt>
      <trkpt lat="47.98124" lon="7.10824">
        <ele>1048</ele>
        <time>2019-05-06T18:59:18Z</time>
      </trkpt>
      <trkpt lat="47.98119" lon="7.10899">
        <ele>1049</ele>
        <time>2019-05-06T19:00:18Z</time>
      </trkpt>
      <trkpt lat="47.98111" lon="7.10927">
        <ele>1052</ele>
        <time>2019-05-06T19:01:18Z</time>
      </trkpt>
      <trkpt lat="47.98082" lon="7.10988">
        <ele>1067</ele>
        <time>2019-05-06T19:02:18Z</time>
      </trkpt>
      <trkpt lat="47.98078" lon="7.1103">
        <ele>1068</ele>
        <time>2019-05-06T19:03:18Z</time>
      </trkpt>
      <trkpt lat="47.98057" lon="7.11112">
        <ele>1080</ele>
        <time>2019-05-06T19:04:18Z</time>
      </trkpt>
      <trkpt lat="47.98052" lon="7.11151">
        <ele>1085</ele>
        <time>2019-05-06T19:05:18Z</time>
      </trkpt>
      <trkpt lat="47.98064" lon="7.11255">
        <ele>1092</ele>
        <time>2019-05-06T19:06:18Z</time>
      </trkpt>
      <trkpt lat="47.98069" lon="7.11279">
        <ele>1092</ele>
        <time>2019-05-06T19:07:18Z</time>
      </trkpt>
      <trkpt lat="47.98073" lon="7.11345">
        <ele>1095</ele>
        <time>2019-05-06T19:08:18Z</time>
      </trkpt>
      <trkpt lat="47.98061" lon="7.11492">
        <ele>1109</ele>
        <time>2019-05-06T19:09:18Z</time>
      </trkpt>
      <trkpt lat="47.98057" lon="7.11517">
        <ele>1112</ele>
        <time>2019-05-06T19:10:18Z</time>
      </trkpt>
      <trkpt lat="47.98052" lon="7.11635">
        <ele>1118</ele>
        <time>2019-05-06T19:11:18Z</time>
      </trkpt>
      <trkpt lat="47.98051" lon="7.11724">
        <ele>1122</ele>
        <time>2019-05-06T19:12:18Z</time>
      </trkpt>
      <trkpt lat="47.98028" lon="7.11772">
        <ele>1135</ele>
        <time>2019-05-06T19:13:18Z</time>
      </trkpt>
      <trkpt lat="47.98026" lon="7.1179">
        <ele>1138</ele>
        <time>2019-05-06T19:14:18Z</time>
      </trkpt>
      <trkpt lat="47.98044" lon="7.11826">
        <ele>1136</ele>
        <time>2019-05-06T19:15:18Z</time>
      </trkpt>
      <trkpt lat="47.98055" lon="7.11858">
        <ele>1139</ele>
        <time>2019-05-06T19:16:18Z</time>
      </trkpt>
      <trkpt lat="47.98099" lon="7.11951">
        <ele>1145</ele>
        <time>2019-05-06T19:17:18Z</time>
      </trkpt>
      <trkpt lat="47.98114" lon="7.11971">
        <ele>1146</ele>
        <time>2019-05-06T19:18:18Z</time>
      </trkpt>
      <trkpt lat="47.98123" lon="7.11979">
        <ele>1146</ele>
        <time>2019-05-06T19:19:18Z</time>
      </trkpt>
      <trkpt lat="47.98142" lon="7.11985">
        <ele>1145</ele>
        <time>2019-05-06T19:20:18Z</time>
      </trkpt>
      <trkpt lat="47.98142" lon="7.11994">
        <ele>1147</ele>
        <time>2019-05-06T19:21:18Z</time>
      </trkpt>
      <trkpt lat="47.98087" lon="7.12006">
        <ele>1157</ele>
        <time>2019-05-06T19:22:18Z</time>
      </trkpt>
      <trkpt lat="47.9808" lon="7.11999">
        <ele>1157</ele>
        <time>2019-05-06T19:23:18Z</time>
      </trkpt>
      <trkpt lat="47.9806" lon="7.1195">
        <ele>1156</ele>
        <time>2019-05-06T19:24:18Z</time>
      </trkpt>
      <trkpt lat="47.98055" lon="7.11945">
        <ele>1157</ele>
        <time>2019-05-06T19:25:18Z</time>
      </trkpt>
      <trkpt lat="47.98031" lon="7.1193">
        <ele>1162</ele>
        <time>2019-05-06T19:26:18Z</time>
      </trkpt>
      <trkpt lat="47.97893" lon="7.11865">
        <ele>1191</ele>
        <time>2019-05-06T19:27:18Z</time>
      </trkpt>
      <trkpt lat="47.9789" lon="7.11856">
        <ele>1191</ele>
        <time>2019-05-06T19:28:18Z</time>
      </trkpt>
      <trkpt lat="47.97874" lon="7.11729">
        <ele>1194</ele>
        <time>2019-05-06T19:29:18Z</time>
      </trkpt>
      <trkpt lat="47.9787" lon="7.1173">
        <ele>1195</ele>
        <time>2019-05-06T19:30:18Z</time>
      </trkpt>
      <trkpt lat="47.97855" lon="7.11836">
        <ele>1197</ele>
        <time>2019-05-06T19:31:18Z</time>
      </trkpt>
      <trkpt lat="47.97854" lon="7.11865">
        <ele>1199</ele>
        <time>2019-05-06T19:32:18Z</time>
      </trkpt>
      <trkpt lat="47.97857" lon="7.11872">
        <ele>1199</ele>
        <time>2019-05-06T19:33:18Z</time>
      </trkpt>
      <trkpt lat="47.97875" lon="7.11892">
        <ele>1198</ele>
        <time>2019-05-06T19:34:18Z</time>
      </trkpt>
      <trkpt lat="47.97887" lon="7.11936">
        <ele>1199</ele>
        <time>2019-05-06T19:35:18Z</time>
      </trkpt>
      <trkpt lat="47.97914" lon="7.11978">
        <ele>1199</ele>
        <time>2019-05-06T19:36:18Z</time>
      </trkpt>
      <trkpt lat="47.97945" lon="7.12034">
        <ele>1197</ele>
        <time>2019-05-06T19:37:18Z</time>
      </trkpt>
      <trkpt lat="47.98" lon="7.12171">
        <ele>1201</ele>
        <time>2019-05-06T19:38:18Z</time>
      </trkpt>
      <trkpt lat="47.98006" lon="7.1219">
        <ele>1202</ele>
        <time>2019-05-06T19:39:18Z</time>
      </trkpt>
      <trkpt lat="47.98009" lon="7.12211">
        <ele>1205</ele>
        <time>2019-05-06T19:40:18Z</time>
      </trkpt>
      <trkpt lat="47.97994" lon="7.12301">
        <ele>1217</ele>
        <time>2019-05-06T19:41:18Z</time>
      </trkpt>
      <trkpt lat="47.97988" lon="7.12323">
        <ele>1219</ele>
        <time>2019-05-06T19:42:18Z</time>
      </trkpt>
      <trkpt lat="47.97977" lon="7.12343">
        <ele>1221</ele>
        <time>2019-05-06T19:43:18Z</time>
      </trkpt>
      <trkpt lat="47.97948" lon="7.12374">
        <ele>1223</ele>
        <time>2019-05-06T19:44:18Z</time>
      </trkpt>
      <trkpt lat="47.9794" lon="7.12368">
        <ele>1222</ele>
        <time>2019-05-06T19:45:18Z</time>
      </trkpt>
      <trkpt lat="47.97923" lon="7.1234">
        <ele>1219</ele>
        <time>2019-05-06T19:46:18Z</time>
      </trkpt>
      <trkpt lat="47.97917" lon="7.12341">
        <ele>1219</ele>
        <time>2019-05-06T19:47:18Z</time>
      </trkpt>
      <trkpt lat="47.97905" lon="7.12363">
        <ele>1219</ele>
        <time>2019-05-06T19:48:18Z</time>
      </trkpt>
      <trkpt lat="47.97894" lon="7.12449">
        <ele>1218</ele>
        <time>2019-05-06T19:49:18Z</time>
      </trkpt>
      <trkpt lat="47.97881" lon="7.12518">
        <ele>1215</ele>
        <time>2019-05-06T19:50:18Z</time>
      </trkpt>
      <trkpt lat="47.97875" lon="7.12586">
        <ele>1212</ele>
        <time>2019-05-06T19:51:18Z</time>
      </trkpt>
      <trkpt lat="47.97845" lon="7.12676">
        <ele>1201</ele>
        <time>2019-05-06T19:52:18Z</time>
      </trkpt>
      <trkpt lat="47.97782" lon="7.12926">
        <ele>1171</ele>
        <time>2019-05-06T19:53:18Z</time>
      </trkpt>
      <trkpt lat="47.97775" lon="7.12977">
        <ele>1166</ele>
        <time>2019-05-06T19:54:18Z</time>
      </trkpt>
      <trkpt lat="47.97769" lon="7.13062">
        <ele>1160</ele>
        <time>2019-05-06T19:55:18Z</time>
      </trkpt>
      <trkpt lat="47.97764" lon="7.13086">
        <ele>1158</ele>
        <time>2019-05-06T19:56:18Z</time>
      </trkpt>
      <trkpt lat="47.97735" lon="7.13139">
        <ele>1157</ele>
        <time>2019-05-06T19:57:18Z</time>
      </trkpt>
      <trkpt lat="47.97722" lon="7.13151">
        <ele>1156</ele>
        <time>2019-05-06T19:58:18Z</time>
      </trkpt>
      <trkpt lat="47.97678" lon="7.13175">
        <ele>1153</ele>
        <time>2019-05-06T19:59:18Z</time>
      </trkpt>
      <trkpt lat="47.97659" lon="7.13182">
        <ele>1151</ele>
        <time>2019-05-06T20:00:18Z</time>
      </trkpt>
      <trkpt lat="47.97608" lon="7.13192">
        <ele>1144</ele>
        <time>2019-05-06T20:01:18Z</time>
      </trkpt>
      <trkpt lat="47.97555" lon="7.13199">
        <ele>1142</ele>
        <time>2019-05-06T20:02:18Z</time>
      </trkpt>
      <trkpt lat="47.97528" lon="7.13207">
        <ele>1143</ele>
        <time>2019-05-06T20:03:18Z</time>
      </trkpt>
      <trkpt lat="47.97483" lon="7.13243">
        <ele>1147</ele>
        <time>2019-05-06T20:04:18Z</time>
      </trkpt>
      <trkpt lat="47.97458" lon="7.13267">
        <ele>1144</ele>
        <time>2019-05-06T20:05:18Z</time>
      </trkpt>
      <trkpt lat="47.97426" lon="7.13317">
        <ele>1141</ele>
        <time>2019-05-06T20:06:18Z</time>
      </trkpt>
      <trkpt lat="47.97422" lon="7.13339">
        <ele>1140</ele>
        <time>2019-05-06T20:07:18Z</time>
      </trkpt>
      <trkpt lat="47.9743" lon="7.13384">
        <ele>1135</ele>
        <time>2019-05-06T20:08:18Z</time>
      </trkpt>
      <trkpt lat="47.97441" lon="7.13403">
        <ele>1134</ele>
        <time>2019-05-06T20:09:18Z</time>
      </trkpt>
      <trkpt lat="47.9745" lon="7.13411">
        <ele>1134</ele>
        <time>2019-05-06T20:10:18Z</time>
      </trkpt>
      <trkpt lat="47.97465" lon="7.13431">
        <ele>1133</ele>
        <time>2019-05-06T20:11:18Z</time>
      </trkpt>
      <trkpt lat="47.97484" lon="7.1344">
        <ele>1134</ele>
        <time>2019-05-06T20:12:18Z</time>
      </trkpt>
      <trkpt lat="47.9754" lon="7.13444">
        <ele>1139</ele>
        <time>2019-05-06T20:13:18Z</time>
      </trkpt>
      <trkpt lat="47.97614" lon="7.13456">
        <ele>1144</ele>
        <time>2019-05-06T20:14:18Z</time>
      </trkpt>
      <trkpt lat="47.97665" lon="7.13459">
        <ele>1149</ele>
        <time>2019-05-06T20:15:18Z</time>
      </trkpt>
      <trkpt lat="47.97753" lon="7.13432">
        <ele>1143</ele>
        <time>2019-05-06T20:16:18Z</time>
      </trkpt>
      <trkpt lat="47.97832" lon="7.13395">
        <ele>1136</ele>
        <time>2019-05-06T20:17:18Z</time>
      </trkpt>
      <trkpt lat="47.97875" lon="7.13365">
        <ele>1128</ele>
        <time>2019-05-06T20:18:18Z</time>
      </trkpt>
      <trkpt lat="47.97918" lon="7.1333">
        <ele>1118</ele>
        <time>2019-05-06T20:19:18Z</time>
      </trkpt>
      <trkpt lat="47.9793" lon="7.13311">
        <ele>1117</ele>
        <time>2019-05-06T20:20:18Z</time>
      </trkpt>
      <trkpt lat="47.97958" lon="7.13238">
        <ele>1121</ele>
        <time>2019-05-06T20:21:18Z</time>
      </trkpt>
      <trkpt lat="47.97969" lon="7.13224">
        <ele>1120</ele>
        <time>2019-05-06T20:22:18Z</time>
      </trkpt>
      <trkpt lat="47.97985" lon="7.13216">
        <ele>1116</ele>
        <time>2019-05-06T20:23:18Z</time>
      </trkpt>
      <trkpt lat="47.98037" lon="7.13205">
        <ele>1108</ele>
        <time>2019-05-06T20:24:18Z</time>
      </trkpt>
      <trkpt lat="47.98066" lon="7.13204">
        <ele>1105</ele>
        <time>2019-05-06T20:25:18Z</time>
      </trkpt>
      <trkpt lat="47.98104" lon="7.13214">
        <ele>1100</ele>
        <time>2019-05-06T20:26:18Z</time>
      </trkpt>
      <trkpt lat="47.98149" lon="7.13236">
        <ele>1095</ele>
        <time>2019-05-06T20:27:18Z</time>
      </trkpt>
      <trkpt lat="47.98233" lon="7.13252">
        <ele>1091</ele>
        <time>2019-05-06T20:28:18Z</time>
      </trkpt>
      <trkpt lat="47.98287" lon="7.13272">
        <ele>1092</ele>
        <time>2019-05-06T20:29:18Z</time>
      </trkpt>
      <trkpt lat="47.98302" lon="7.13271">
        <ele>1095</ele>
        <time>2019-05-06T20:30:18Z</time>
      </trkpt>
      <trkpt lat="47.98325" lon="7.13278">
        <ele>1096</ele>
        <time>2019-05-06T20:31:18Z</time>
      </trkpt>
      <trkpt lat="47.98348" lon="7.13291">
        <ele>1097</ele>
        <time>2019-05-06T20:32:18Z</time>
      </trkpt>
      <trkpt lat="47.98399" lon="7.13335">
        <ele>1099</ele>
        <time>2019-05-06T20:33:18Z</time>
      </trkpt>
      <trkpt lat="47.9844" lon="7.13376">
        <ele>1095</ele>
        <time>2019-05-06T20:34:18Z</time>
      </trkpt>
      <trkpt lat="47.98462" lon="7.13391">
        <ele>1092</ele>
        <time>2019-05-06T20:35:18Z</time>
      </trkpt>
      <trkpt lat="47.98474" lon="7.13392">
        <ele>1093</ele>
        <time>2019-05-06T20:36:18Z</time>
      </trkpt>
      <trkpt lat="47.98493" lon="7.13383">
        <ele>1096</ele>
        <time>2019-05-06T20:37:18Z</time>
      </trkpt>
      <trkpt lat="47.9851" lon="7.13362">
        <ele>1100</ele>
        <time>2019-05-06T20:38:18Z</time>
      </trkpt>
      <trkpt lat="47.98517" lon="7.13348">
        <ele>1103</ele>
        <time>2019-05-06T20:39:18Z</time>
      </trkpt>
      <trkpt lat="47.98556" lon="7.13302">
        <ele>1109</ele>
        <time>2019-05-06T20:40:18Z</time>
      </trkpt>
      <trkpt lat="47.9858" lon="7.1328">
        <ele>1111</ele>
        <time>2019-05-06T20:41:18Z</time>
      </trkpt>
      <trkpt lat="47.98583" lon="7.13273">
        <ele>1112</ele>
        <time>2019-05-06T20:42:18Z</time>
      </trkpt>
      <trkpt lat="47.9858" lon="7.1326">
        <ele>1116</ele>
        <time>2019-05-06T20:43:18Z</time>
      </trkpt>
      <trkpt lat="47.98572" lon="7.13256">
        <ele>1118</ele>
        <time>2019-05-06T20:44:18Z</time>
      </trkpt>
      <trkpt lat="47.98522" lon="7.13271">
        <ele>1121</ele>
        <time>2019-05-06T20:45:18Z</time>
      </trkpt>
      <trkpt lat="47.9849" lon="7.1329">
        <ele>1119</ele>
        <time>2019-05-06T20:46:18Z</time>
      </trkpt>
      <trkpt lat="47.98485" lon="7.13285">
        <ele>1120</ele>
        <time>2019-05-06T20:47:18Z</time>
      </trkpt>
      <trkpt lat="47.98486" lon="7.13277">
        <ele>1122</ele>
        <time>2019-05-06T20:48:18Z</time>
      </trkpt>
      <trkpt lat="47.98505" lon="7.13236">
        <ele>1131</ele>
        <time>2019-05-06T20:49:18Z</time>
      </trkpt>
      <trkpt lat="47.98526" lon="7.13174">
        <ele>1141</ele>
        <time>2019-05-06T20:50:18Z</time>
      </trkpt>
      <trkpt lat="47.98545" lon="7.13127">
        <ele>1148</ele>
        <time>2019-05-06T20:51:18Z</time>
      </trkpt>
      <trkpt lat="47.98568" lon="7.1305">
        <ele>1154</ele>
        <time>2019-05-06T20:52:18Z</time>
      </trkpt>
      <trkpt lat="47.98567" lon="7.13014">
        <ele>1156</ele>
        <time>2019-05-06T20:53:18Z</time>
      </trkpt>
      <trkpt lat="47.98564" lon="7.13012">
        <ele>1157</ele>
        <time>2019-05-06T20:54:18Z</time>
      </trkpt>
      <trkpt lat="47.98563" lon="7.1299">
        <ele>1157</ele>
        <time>2019-05-06T20:55:18Z</time>
      </trkpt>
      <trkpt lat="47.98574" lon="7.12965">
        <ele>1155</ele>
        <time>2019-05-06T20:56:18Z</time>
      </trkpt>
      <trkpt lat="47.98576" lon="7.12954">
        <ele>1154</ele>
        <time>2019-05-06T20:57:18Z</time>
      </trkpt>
      <trkpt lat="47.98574" lon="7.1294">
        <ele>1154</ele>
        <time>2019-05-06T20:58:18Z</time>
      </trkpt>
      <trkpt lat="47.98579" lon="7.12875">
        <ele>1149</ele>
        <time>2019-05-06T20:59:18Z</time>
      </trkpt>
      <trkpt lat="47.98576" lon="7.12839">
        <ele>1147</ele>
        <time>2019-05-06T21:00:18Z</time>
      </trkpt>
      <trkpt lat="47.98579" lon="7.12806">
        <ele>1145</ele>
        <time>2019-05-06T21:01:18Z</time>
      </trkpt>
      <trkpt lat="47.98597" lon="7.12738">
        <ele>1136</ele>
        <time>2019-05-06T21:02:18Z</time>
      </trkpt>
      <trkpt lat="47.98632" lon="7.12629">
        <ele>1120</ele>
        <time>2019-05-06T21:03:18Z</time>
      </trkpt>
      <trkpt lat="47.98679" lon="7.12574">
        <ele>1109</ele>
        <time>2019-05-06T21:04:18Z</time>
      </trkpt>
      <trkpt lat="47.9874" lon="7.12522">
        <ele>1095</ele>
        <time>2019-05-06T21:05:18Z</time>
      </trkpt>
      <trkpt lat="47.9879" lon="7.12493">
        <ele>1088</ele>
        <time>2019-05-06T21:06:18Z</time>
      </trkpt>
      <trkpt lat="47.98849" lon="7.12468">
        <ele>1078</ele>
        <time>2019-05-06T21:07:18Z</time>
      </trkpt>
      <trkpt lat="47.98871" lon="7.12462">
        <ele>1074</ele>
        <time>2019-05-06T21:08:18Z</time>
      </trkpt>
      <trkpt lat="47.98876" lon="7.12471">
        <ele>1072</ele>
        <time>2019-05-06T21:09:18Z</time>
      </trkpt>
      <trkpt lat="47.98877" lon="7.12485">
        <ele>1071</ele>
        <time>2019-05-06T21:10:18Z</time>
      </trkpt>
      <trkpt lat="47.98863" lon="7.12568">
        <ele>1061</ele>
        <time>2019-05-06T21:11:18Z</time>
      </trkpt>
      <trkpt lat="47.98853" lon="7.12614">
        <ele>1059</ele>
        <time>2019-05-06T21:12:18Z</time>
      </trkpt>
      <trkpt lat="47.98834" lon="7.12658">
        <ele>1060</ele>
        <time>2019-05-06T21:13:18Z</time>
      </trkpt>
      <trkpt lat="47.98837" lon="7.12666">
        <ele>1059</ele>
        <time>2019-05-06T21:14:18Z</time>
      </trkpt>
      <trkpt lat="47.98854" lon="7.1267">
        <ele>1056</ele>
        <time>2019-05-06T21:15:18Z</time>
      </trkpt>
      <trkpt lat="47.9886" lon="7.12658">
        <ele>1055</ele>
        <time>2019-05-06T21:16:18Z</time>
      </trkpt>
      <trkpt lat="47.9887" lon="7.12621">
        <ele>1056</ele>
        <time>2019-05-06T21:17:18Z</time>
      </trkpt>
      <trkpt lat="47.98896" lon="7.12483">
        <ele>1067</ele>
        <time>2019-05-06T21:18:18Z</time>
      </trkpt>
      <trkpt lat="47.98906" lon="7.12461">
        <ele>1068</ele>
        <time>2019-05-06T21:19:18Z</time>
      </trkpt>
      <trkpt lat="47.98939" lon="7.12402">
        <ele>1072</ele>
        <time>2019-05-06T21:20:18Z</time>
      </trkpt>
      <trkpt lat="47.98944" lon="7.12397">
        <ele>1072</ele>
        <time>2019-05-06T21:21:18Z</time>
      </trkpt>
      <trkpt lat="47.99018" lon="7.12445">
        <ele>1061</ele>
        <time>2019-05-06T21:22:18Z</time>
      </trkpt>
      <trkpt lat="47.99072" lon="7.12475">
        <ele>1054</ele>
        <time>2019-05-06T21:23:18Z</time>
      </trkpt>
      <trkpt lat="47.99205" lon="7.12579">
        <ele>1035</ele>
        <time>2019-05-06T21:24:18Z</time>
      </trkpt>
      <trkpt lat="47.99325" lon="7.12636">
        <ele>1020</ele>
        <time>2019-05-06T21:25:18Z</time>
      </trkpt>
      <trkpt lat="47.99371" lon="7.12636">
        <ele>1015</ele>
        <time>2019-05-06T21:26:18Z</time>
      </trkpt>
      <trkpt lat="47.99419" lon="7.1266">
        <ele>1003</ele>
        <time>2019-05-06T21:27:18Z</time>
      </trkpt>
      <trkpt lat="47.9949" lon="7.12688">
        <ele>993</ele>
        <time>2019-05-06T21:28:18Z</time>
      </trkpt>
      <trkpt lat="47.99514" lon="7.12694">
        <ele>990</ele>
        <time>2019-05-06T21:29:18Z</time>
      </trkpt>
      <trkpt lat="47.99546" lon="7.12689">
        <ele>989</ele>
        <time>2019-05-06T21:30:18Z</time>
      </trkpt>
      <trkpt lat="47.99566" lon="7.12693">
        <ele>987</ele>
        <time>2019-05-06T21:31:18Z</time>
      </trkpt>
      <trkpt lat="47.99614" lon="7.12694">
        <ele>979</ele>
        <time>2019-05-06T21:32:18Z</time>
      </trkpt>
      <trkpt lat="47.99632" lon="7.12684">
        <ele>977</ele>
        <time>2019-05-06T21:33:18Z</time>
      </trkpt>
      <trkpt lat="47.99679" lon="7.12637">
        <ele>969</ele>
        <time>2019-05-06T21:34:18Z</time>
      </trkpt>
      <trkpt lat="47.99707" lon="7.12593">
        <ele>963</ele>
        <time>2019-05-06T21:35:18Z</time>
      </trkpt>
      <trkpt lat="47.99757" lon="7.1255">
        <ele>953</ele>
        <time>2019-05-06T21:36:18Z</time>
      </trkpt>
      <trkpt lat="47.99803" lon="7.12548">
        <ele>944</ele>
        <time>2019-05-06T21:37:18Z</time>
      </trkpt>
      <trkpt lat="47.99834" lon="7.12534">
        <ele>940</ele>
        <time>2019-05-06T21:38:18Z</time>
      </trkpt>
      <trkpt lat="47.99842" lon="7.12533">
        <ele>939</ele>
        <time>2019-05-06T21:39:18Z</time>
      </trkpt>
      <trkpt lat="47.9985" lon="7.12536">
        <ele>938</ele>
        <time>2019-05-06T21:40:18Z</time>
      </trkpt>
      <trkpt lat="47.99849" lon="7.12548">
        <ele>937</ele>
        <time>2019-05-06T21:41:18Z</time>
      </trkpt>
      <trkpt lat="47.99838" lon="7.12591">
        <ele>934</ele>
        <time>2019-05-06T21:42:18Z</time>
      </trkpt>
      <trkpt lat="47.99823" lon="7.1263">
        <ele>933</ele>
        <time>2019-05-06T21:43:18Z</time>
      </trkpt>
      <trkpt lat="47.99815" lon="7.1266">
        <ele>932</ele>
        <time>2019-05-06T21:44:18Z</time>
      </trkpt>
      <trkpt lat="47.9982" lon="7.1266">
        <ele>931</ele>
        <time>2019-05-06T21:45:18Z</time>
      </trkpt>
      <trkpt lat="47.99824" lon="7.1267">
        <ele>929</ele>
        <time>2019-05-06T21:46:18Z</time>
      </trkpt>
      <trkpt lat="47.99832" lon="7.12729">
        <ele>924</ele>
        <time>2019-05-06T21:47:18Z</time>
      </trkpt>
      <trkpt lat="47.99841" lon="7.12771">
        <ele>923</ele>
        <time>2019-05-06T21:48:18Z</time>
      </trkpt>
      <trkpt lat="47.9989" lon="7.12812">
        <ele>920</ele>
        <time>2019-05-06T21:49:18Z</time>
      </trkpt>
      <trkpt lat="47.99929" lon="7.12859">
        <ele>921</ele>
        <time>2019-05-06T21:50:18Z</time>
      </trkpt>
      <trkpt lat="47.99968" lon="7.12899">
        <ele>920</ele>
        <time>2019-05-06T21:51:18Z</time>
      </trkpt>
      <trkpt lat="48.00032" lon="7.12988">
        <ele>919</ele>
        <time>2019-05-06T21:52:18Z</time>
      </trkpt>
      <trkpt lat="48.0012" lon="7.13104">
        <ele>912</ele>
        <time>2019-05-06T21:53:18Z</time>
      </trkpt>
      <trkpt lat="48.00203" lon="7.13225">
        <ele>908</ele>
        <time>2019-05-06T21:54:18Z</time>
      </trkpt>
      <trkpt lat="48.00249" lon="7.13275">
        <ele>904</ele>
        <time>2019-05-06T21:55:18Z</time>
      </trkpt>
      <trkpt lat="48.00269" lon="7.13294">
        <ele>903</ele>
        <time>2019-05-06T21:56:18Z</time>
      </trkpt>
      <trkpt lat="48.00286" lon="7.13304">
        <ele>901</ele>
        <time>2019-05-06T21:57:18Z</time>
      </trkpt>
      <trkpt lat="48.00306" lon="7.13328">
        <ele>899</ele>
        <time>2019-05-06T21:58:18Z</time>
      </trkpt>
      <trkpt lat="48.00312" lon="7.13332">
        <ele>897</ele>
        <time>2019-05-06T21:59:18Z</time>
      </trkpt>
      <trkpt lat="48.00299" lon="7.13322">
        <ele>900</ele>
        <time>2019-05-06T22:00:18Z</time>
      </trkpt>
      <trkpt lat="48.00235" lon="7.13246">
        <ele>903</ele>
        <time>2019-05-06T22:01:18Z</time>
      </trkpt>
      <trkpt lat="48.00176" lon="7.13156">
        <ele>907</ele>
        <time>2019-05-06T22:02:18Z</time>
      </trkpt>
      <trkpt lat="48.00159" lon="7.13104">
        <ele>903</ele>
        <time>2019-05-06T22:03:18Z</time>
      </trkpt>
      <trkpt lat="48.00138" lon="7.13051">
        <ele>904</ele>
        <time>2019-05-06T22:04:18Z</time>
      </trkpt>
      <trkpt lat="48.00107" lon="7.12986">
        <ele>905</ele>
        <time>2019-05-06T22:05:18Z</time>
      </trkpt>
      <trkpt lat="48.00089" lon="7.1294">
        <ele>903</ele>
        <time>2019-05-06T22:06:18Z</time>
      </trkpt>
      <trkpt lat="48.00075" lon="7.12894">
        <ele>900</ele>
        <time>2019-05-06T22:07:18Z</time>
      </trkpt>
      <trkpt lat="48.00063" lon="7.12827">
        <ele>895</ele>
        <time>2019-05-06T22:08:18Z</time>
      </trkpt>
      <trkpt lat="48.00062" lon="7.12803">
        <ele>894</ele>
        <time>2019-05-06T22:09:18Z</time>
      </trkpt>
      <trkpt lat="48.00072" lon="7.12755">
        <ele>890</ele>
        <time>2019-05-06T22:10:18Z</time>
      </trkpt>
      <trkpt lat="48.00087" lon="7.12718">
        <ele>890</ele>
        <time>2019-05-06T22:11:18Z</time>
      </trkpt>
      <trkpt lat="48.00099" lon="7.1271">
        <ele>889</ele>
        <time>2019-05-06T22:12:18Z</time>
      </trkpt>
      <trkpt lat="48.00121" lon="7.12706">
        <ele>888</ele>
        <time>2019-05-06T22:13:18Z</time>
      </trkpt>
      <trkpt lat="48.00174" lon="7.1271">
        <ele>884</ele>
        <time>2019-05-06T22:14:18Z</time>
      </trkpt>
      <trkpt lat="48.00186" lon="7.12707">
        <ele>882</ele>
        <time>2019-05-06T22:15:18Z</time>
      </trkpt>
      <trkpt lat="48.00196" lon="7.12698">
        <ele>881</ele>
        <time>2019-05-06T22:16:18Z</time>
      </trkpt>
      <trkpt lat="48.00205" lon="7.12681">
        <ele>880</ele>
        <time>2019-05-06T22:17:18Z</time>
      </trkpt>
      <trkpt lat="48.0021" lon="7.12583">
        <ele>886</ele>
        <time>2019-05-06T22:18:18Z</time>
      </trkpt>
      <trkpt lat="48.00206" lon="7.12569">
        <ele>887</ele>
        <time>2019-05-06T22:19:18Z</time>
      </trkpt>
      <trkpt lat="48.00203" lon="7.12523">
        <ele>891</ele>
        <time>2019-05-06T22:20:18Z</time>
      </trkpt>
      <trkpt lat="48.00202" lon="7.12403">
        <ele>892</ele>
        <time>2019-05-06T22:21:18Z</time>
      </trkpt>
      <trkpt lat="48.0021" lon="7.1237">
        <ele>891</ele>
        <time>2019-05-06T22:22:18Z</time>
      </trkpt>
      <trkpt lat="48.00211" lon="7.12346">
        <ele>891</ele>
        <time>2019-05-06T22:23:18Z</time>
      </trkpt>
      <trkpt lat="48.00205" lon="7.12332">
        <ele>892</ele>
        <time>2019-05-06T22:24:18Z</time>
      </trkpt>
      <trkpt lat="48.00192" lon="7.12315">
        <ele>895</ele>
        <time>2019-05-06T22:25:18Z</time>
      </trkpt>
      <trkpt lat="48.00074" lon="7.12214">
        <ele>906</ele>
        <time>2019-05-06T22:26:18Z</time>
      </trkpt>
      <trkpt lat="48.00032" lon="7.1218">
        <ele>905</ele>
        <time>2019-05-06T22:27:18Z</time>
      </trkpt>
      <trkpt lat="47.99977" lon="7.12142">
        <ele>902</ele>
        <time>2019-05-06T22:28:18Z</time>
      </trkpt>
      <trkpt lat="47.99953" lon="7.12128">
        <ele>901</ele>
        <time>2019-05-06T22:29:18Z</time>
      </trkpt>
      <trkpt lat="47.99919" lon="7.12115">
        <ele>901</ele>
        <time>2019-05-06T22:30:18Z</time>
      </trkpt>
      <trkpt lat="47.99889" lon="7.12095">
        <ele>902</ele>
        <time>2019-05-06T22:31:18Z</time>
      </trkpt>
      <trkpt lat="47.99846" lon="7.12056">
        <ele>901</ele>
        <time>2019-05-06T22:32:18Z</time>
      </trkpt>
      <trkpt lat="47.99793" lon="7.12003">
        <ele>906</ele>
        <time>2019-05-06T22:33:18Z</time>
      </trkpt>
      <trkpt lat="47.99751" lon="7.11898">
        <ele>909</ele>
        <time>2019-05-06T22:34:18Z</time>
      </trkpt>
      <trkpt lat="47.99746" lon="7.11872">
        <ele>908</ele>
        <time>2019-05-06T22:35:18Z</time>
      </trkpt>
      <trkpt lat="47.99752" lon="7.11844">
        <ele>905</ele>
        <time>2019-05-06T22:36:18Z</time>
      </trkpt>
      <trkpt lat="47.99778" lon="7.1181">
        <ele>904</ele>
        <time>2019-05-06T22:37:18Z</time>
      </trkpt>
      <trkpt lat="47.99826" lon="7.11785">
        <ele>898</ele>
        <time>2019-05-06T22:38:18Z</time>
      </trkpt>
      <trkpt lat="47.99831" lon="7.11779">
        <ele>898</ele>
        <time>2019-05-06T22:39:18Z</time>
      </trkpt>
      <trkpt lat="47.99883" lon="7.11741">
        <ele>898</ele>
        <time>2019-05-06T22:40:18Z</time>
      </trkpt>
      <trkpt lat="47.999" lon="7.11736">
        <ele>897</ele>
        <time>2019-05-06T22:41:18Z</time>
      </trkpt>
      <trkpt lat="48.00008" lon="7.11738">
        <ele>881</ele>
        <time>2019-05-06T22:42:18Z</time>
      </trkpt>
      <trkpt lat="48.00034" lon="7.11731">
        <ele>875</ele>
        <time>2019-05-06T22:43:18Z</time>
      </trkpt>
      <trkpt lat="48.00086" lon="7.11682">
        <ele>870</ele>
        <time>2019-05-06T22:44:18Z</time>
      </trkpt>
      <trkpt lat="48.00127" lon="7.11621">
        <ele>865</ele>
        <time>2019-05-06T22:45:18Z</time>
      </trkpt>
      <trkpt lat="48.00154" lon="7.11555">
        <ele>860</ele>
        <time>2019-05-06T22:46:18Z</time>
      </trkpt>
      <trkpt lat="48.00156" lon="7.11541">
        <ele>860</ele>
        <time>2019-05-06T22:47:18Z</time>
      </trkpt>
      <trkpt lat="48.00154" lon="7.11478">
        <ele>863</ele>
        <time>2019-05-06T22:48:18Z</time>
      </trkpt>
      <trkpt lat="48.00148" lon="7.11441">
        <ele>865</ele>
        <time>2019-05-06T22:49:18Z</time>
      </trkpt>
      <trkpt lat="48.00147" lon="7.11407">
        <ele>865</ele>
        <time>2019-05-06T22:50:18Z</time>
      </trkpt>
      <trkpt lat="48.00138" lon="7.11342">
        <ele>868</ele>
        <time>2019-05-06T22:51:18Z</time>
      </trkpt>
      <trkpt lat="48.00145" lon="7.11306">
        <ele>868</ele>
        <time>2019-05-06T22:52:18Z</time>
      </trkpt>
      <trkpt lat="48.002" lon="7.11172">
        <ele>860</ele>
        <time>2019-05-06T22:53:18Z</time>
      </trkpt>
      <trkpt lat="48.0023" lon="7.11115">
        <ele>861</ele>
        <time>2019-05-06T22:54:18Z</time>
      </trkpt>
      <trkpt lat="48.00244" lon="7.11077">
        <ele>863</ele>
        <time>2019-05-06T22:55:18Z</time>
      </trkpt>
      <trkpt lat="48.00247" lon="7.11045">
        <ele>867</ele>
        <time>2019-05-06T22:56:18Z</time>
      </trkpt>
      <trkpt lat="48.00256" lon="7.1102">
        <ele>869</ele>
        <time>2019-05-06T22:57:18Z</time>
      </trkpt>
      <trkpt lat="48.0029" lon="7.10964">
        <ele>871</ele>
        <time>2019-05-06T22:58:18Z</time>
      </trkpt>
      <trkpt lat="48.003" lon="7.10936">
        <ele>875</ele>
        <time>2019-05-06T22:59:18Z</time>
      </trkpt>
      <trkpt lat="48.0032" lon="7.10909">
        <ele>875</ele>
        <time>2019-05-06T23:00:18Z</time>
      </trkpt>
      <trkpt lat="48.00357" lon="7.10833">
        <ele>884</ele>
        <time>2019-05-06T23:01:18Z</time>
      </trkpt>
      <trkpt lat="48.00364" lon="7.10799">
        <ele>885</ele>
        <time>2019-05-06T23:02:18Z</time>
      </trkpt>
      <trkpt lat="48.00348" lon="7.10733">
        <ele>892</ele>
        <time>2019-05-06T23:03:18Z</time>
      </trkpt>
      <trkpt lat="48.0035" lon="7.10727">
        <ele>891</ele>
        <time>2019-05-06T23:04:18Z</time>
      </trkpt>
      <trkpt lat="48.00374" lon="7.10717">
        <ele>887</ele>
        <time>2019-05-06T23:05:18Z</time>
      </trkpt>
      <trkpt lat="48.00448" lon="7.10652">
        <ele>874</ele>
        <time>2019-05-06T23:06:18Z</time>
      </trkpt>
      <trkpt lat="48.00465" lon="7.10629">
        <ele>872</ele>
        <time>2019-05-06T23:07:18Z</time>
      </trkpt>
      <trkpt lat="48.00467" lon="7.10601">
        <ele>870</ele>
        <time>2019-05-06T23:08:18Z</time>
      </trkpt>
      <trkpt lat="48.00471" lon="7.10595">
        <ele>870</ele>
        <time>2019-05-06T23:09:18Z</time>
      </trkpt>
      <trkpt lat="48.00545" lon="7.10602">
        <ele>865</ele>
        <time>2019-05-06T23:10:18Z</time>
      </trkpt>
      <trkpt lat="48.00596" lon="7.10617">
        <ele>861</ele>
        <time>2019-05-06T23:11:18Z</time>
      </trkpt>
      <trkpt lat="48.00642" lon="7.10657">
        <ele>859</ele>
        <time>2019-05-06T23:12:18Z</time>
      </trkpt>
      <trkpt lat="48.00701" lon="7.10686">
        <ele>850</ele>
        <time>2019-05-06T23:13:18Z</time>
      </trkpt>
      <trkpt lat="48.00721" lon="7.107">
        <ele>846</ele>
        <time>2019-05-06T23:14:18Z</time>
      </trkpt>
      <trkpt lat="48.00725" lon="7.10698">
        <ele>845</ele>
        <time>2019-05-06T23:15:18Z</time>
      </trkpt>
      <trkpt lat="48.007" lon="7.10668">
        <ele>850</ele>
        <time>2019-05-06T23:16:18Z</time>
      </trkpt>
      <trkpt lat="48.00677" lon="7.10649">
        <ele>853</ele>
        <time>2019-05-06T23:17:18Z</time>
      </trkpt>
      <trkpt lat="48.00608" lon="7.10541">
        <ele>849</ele>
        <time>2019-05-06T23:18:18Z</time>
      </trkpt>
      <trkpt lat="48.00603" lon="7.10537">
        <ele>849</ele>
        <time>2019-05-06T23:19:18Z</time>
      </trkpt>
      <trkpt lat="48.00525" lon="7.10508">
        <ele>856</ele>
        <time>2019-05-06T23:20:18Z</time>
      </trkpt>
      <trkpt lat="48.00475" lon="7.10494">
        <ele>857</ele>
        <time>2019-05-06T23:21:18Z</time>
      </trkpt>
      <trkpt lat="48.00431" lon="7.10485">
        <ele>856</ele>
        <time>2019-05-06T23:22:18Z</time>
      </trkpt>
      <trkpt lat="48.00399" lon="7.1049">
        <ele>858</ele>
        <time>2019-05-06T23:23:18Z</time>
      </trkpt>
      <trkpt lat="48.0038" lon="7.10499">
        <ele>860</ele>
        <time>2019-05-06T23:24:18Z</time>
      </trkpt>
      <trkpt lat="48.00335" lon="7.10513">
        <ele>861</ele>
        <time>2019-05-06T23:25:18Z</time>
      </trkpt>
      <trkpt lat="48.00309" lon="7.10515">
        <ele>864</ele>
        <time>2019-05-06T23:26:18Z</time>
      </trkpt>
      <trkpt lat="48.00294" lon="7.10511">
        <ele>865</ele>
        <time>2019-05-06T23:27:18Z</time>
      </trkpt>
      <trkpt lat="48.00263" lon="7.10483">
        <ele>860</ele>
        <time>2019-05-06T23:28:18Z</time>
      </trkpt>
      <trkpt lat="48.00249" lon="7.10464">
        <ele>855</ele>
        <time>2019-05-06T23:29:18Z</time>
      </trkpt>
      <trkpt lat="48.0024" lon="7.10445">
        <ele>852</ele>
        <time>2019-05-06T23:30:18Z</time>
      </trkpt>
      <trkpt lat="48.0022" lon="7.10414">
        <ele>850</ele>
        <time>2019-05-06T23:31:18Z</time>
      </trkpt>
      <trkpt lat="48.00166" lon="7.10269">
        <ele>832</ele>
        <time>2019-05-06T23:32:18Z</time>
      </trkpt>
      <trkpt lat="48.0016" lon="7.10238">
        <ele>826</ele>
        <time>2019-05-06T23:33:18Z</time>
      </trkpt>
      <trkpt lat="48.0016" lon="7.10227">
        <ele>824</ele>
        <time>2019-05-06T23:34:18Z</time>
      </trkpt>
      <trkpt lat="48.00168" lon="7.10227">
        <ele>822</ele>
        <time>2019-05-06T23:35:18Z</time>
      </trkpt>
      <trkpt lat="48.00189" lon="7.10247">
        <ele>820</ele>
        <time>2019-05-06T23:36:18Z</time>
      </trkpt>
      <trkpt lat="48.00231" lon="7.1026">
        <ele>810</ele>
        <time>2019-05-06T23:37:18Z</time>
      </trkpt>
      <trkpt lat="48.00319" lon="7.10258">
        <ele>792</ele>
        <time>2019-05-06T23:38:18Z</time>
      </trkpt>
      <trkpt lat="48.00349" lon="7.10245">
        <ele>785</ele>
        <time>2019-05-06T23:39:18Z</time>
      </trkpt>
      <trkpt lat="48.00362" lon="7.10233">
        <ele>781</ele>
        <time>2019-05-06T23:40:18Z</time>
      </trkpt>
      <trkpt lat="48.00367" lon="7.10224">
        <ele>778</ele>
        <time>2019-05-06T23:41:18Z</time>
      </trkpt>
      <trkpt lat="48.00383" lon="7.1021">
        <ele>773</ele>
        <time>2019-05-06T23:42:18Z</time>
      </trkpt>
      <trkpt lat="48.00393" lon="7.10182">
        <ele>763</ele>
        <time>2019-05-06T23:43:18Z</time>
      </trkpt>
      <trkpt lat="48.00388" lon="7.10178">
        <ele>761</ele>
        <time>2019-05-06T23:44:18Z</time>
      </trkpt>
      <trkpt lat="48.0038" lon="7.10186">
        <ele>764</ele>
        <time>2019-05-06T23:45:18Z</time>
      </trkpt>
      <trkpt lat="48.00354" lon="7.10195">
        <ele>767</ele>
        <time>2019-05-06T23:46:18Z</time>
      </trkpt>
      <trkpt lat="48.00334" lon="7.1019">
        <ele>764</ele>
        <time>2019-05-06T23:47:18Z</time>
      </trkpt>
      <trkpt lat="48.00259" lon="7.10146">
        <ele>766</ele>
        <time>2019-05-06T23:48:18Z</time>
      </trkpt>
      <trkpt lat="48.00246" lon="7.10112">
        <ele>764</ele>
        <time>2019-05-06T23:49:18Z</time>
      </trkpt>
      <trkpt lat="48.00248" lon="7.10044">
        <ele>758</ele>
        <time>2019-05-06T23:50:18Z</time>
      </trkpt>
      <trkpt lat="48.00228" lon="7.09963">
        <ele>764</ele>
        <time>2019-05-06T23:51:18Z</time>
      </trkpt>
      <trkpt lat="48.00218" lon="7.0989">
        <ele>759</ele>
        <time>2019-05-06T23:52:18Z</time>
      </trkpt>
      <trkpt lat="48.00211" lon="7.09809">
        <ele>754</ele>
        <time>2019-05-06T23:53:18Z</time>
      </trkpt>
      <trkpt lat="48.00212" lon="7.09733">
        <ele>749</ele>
        <time>2019-05-06T23:54:18Z</time>
      </trkpt>
      <trkpt lat="48.00206" lon="7.09652">
        <ele>740</ele>
        <time>2019-05-06T23:55:18Z</time>
      </trkpt>
      <trkpt lat="48.00163" lon="7.09602">
        <ele>744</ele>
        <time>2019-05-06T23:56:18Z</time>
      </trkpt>
      <trkpt lat="48.00111" lon="7.09563">
        <ele>750</ele>
        <time>2019-05-06T23:57:18Z</time>
      </trkpt>
      <trkpt lat="48.00068" lon="7.09526">
        <ele>753</ele>
        <time>2019-05-06T23:58:18Z</time>
      </trkpt>
      <trkpt lat="47.99983" lon="7.09414">
        <ele>758</ele>
        <time>2019-05-06T23:59:18Z</time>
      </trkpt>
      <trkpt lat="47.99936" lon="7.09336">
        <ele>762</ele>
        <time>2019-05-07T00:00:18Z</time>
      </trkpt>
      <trkpt lat="47.9991" lon="7.09282">
        <ele>767</ele>
        <time>2019-05-07T00:01:18Z</time>
      </trkpt>
      <trkpt lat="47.99907" lon="7.09271">
        <ele>767</ele>
        <time>2019-05-07T00:02:18Z</time>
      </trkpt>
      <trkpt lat="47.99885" lon="7.09235">
        <ele>775</ele>
        <time>2019-05-07T00:03:18Z</time>
      </trkpt>
      <trkpt lat="47.99875" lon="7.09187">
        <ele>783</ele>
        <time>2019-05-07T00:04:18Z</time>
      </trkpt>
      <trkpt lat="47.99874" lon="7.09174">
        <ele>785</ele>
        <time>2019-05-07T00:05:18Z</time>
      </trkpt>
      <trkpt lat="47.99882" lon="7.09143">
        <ele>787</ele>
        <time>2019-05-07T00:06:18Z</time>
      </trkpt>
      <trkpt lat="47.999" lon="7.09106">
        <ele>789</ele>
        <time>2019-05-07T00:07:18Z</time>
      </trkpt>
      <trkpt lat="47.99904" lon="7.09083">
        <ele>792</ele>
        <time>2019-05-07T00:08:18Z</time>
      </trkpt>
      <trkpt lat="47.99929" lon="7.09037">
        <ele>796</ele>
        <time>2019-05-07T00:09:18Z</time>
      </trkpt>
      <trkpt lat="47.99941" lon="7.09008">
        <ele>800</ele>
        <time>2019-05-07T00:10:18Z</time>
      </trkpt>
      <trkpt lat="48.00009" lon="7.0891">
        <ele>810</ele>
        <time>2019-05-07T00:11:18Z</time>
      </trkpt>
      <trkpt lat="48.00021" lon="7.08896">
        <ele>811</ele>
        <time>2019-05-07T00:12:18Z</time>
      </trkpt>
      <trkpt lat="48.00036" lon="7.08884">
        <ele>811</ele>
        <time>2019-05-07T00:13:18Z</time>
      </trkpt>
      <trkpt lat="48.00054" lon="7.08876">
        <ele>811</ele>
        <time>2019-05-07T00:14:18Z</time>
      </trkpt>
      <trkpt lat="48.00077" lon="7.08876">
        <ele>808</ele>
        <time>2019-05-07T00:15:18Z</time>
      </trkpt>
      <trkpt lat="48.00149" lon="7.08903">
        <ele>799</ele>
        <time>2019-05-07T00:16:18Z</time>
      </trkpt>
      <trkpt lat="48.00198" lon="7.08915">
        <ele>795</ele>
        <time>2019-05-07T00:17:18Z</time>
      </trkpt>
      <trkpt lat="48.00242" lon="7.08932">
        <ele>790</ele>
        <time>2019-05-07T00:18:18Z</time>
      </trkpt>
      <trkpt lat="48.00293" lon="7.08936">
        <ele>783</ele>
        <time>2019-05-07T00:19:18Z</time>
      </trkpt>
      <trkpt lat="48.00392" lon="7.08932">
        <ele>779</ele>
        <time>2019-05-07T00:20:18Z</time>
      </trkpt>
      <trkpt lat="48.00426" lon="7.08944">
        <ele>774</ele>
        <time>2019-05-07T00:21:18Z</time>
      </trkpt>
      <trkpt lat="48.00446" lon="7.08955">
        <ele>768</ele>
        <time>2019-05-07T00:22:18Z</time>
      </trkpt>
      <trkpt lat="48.00471" lon="7.08954">
        <ele>764</ele>
        <time>2019-05-07T00:23:18Z</time>
      </trkpt>
      <trkpt lat="48.00483" lon="7.08951">
        <ele>763</ele>
        <time>2019-05-07T00:24:18Z</time>
      </trkpt>
      <trkpt lat="48.00522" lon="7.08913">
        <ele>765</ele>
        <time>2019-05-07T00:25:18Z</time>
      </trkpt>
      <trkpt lat="48.00533" lon="7.08906">
        <ele>765</ele>
        <time>2019-05-07T00:26:18Z</time>
      </trkpt>
      <trkpt lat="48.0055" lon="7.08903">
        <ele>763</ele>
        <time>2019-05-07T00:27:18Z</time>
      </trkpt>
      <trkpt lat="48.00575" lon="7.08906">
        <ele>758</ele>
        <time>2019-05-07T00:28:18Z</time>
      </trkpt>
      <trkpt lat="48.00585" lon="7.08921">
        <ele>753</ele>
        <time>2019-05-07T00:29:18Z</time>
      </trkpt>
      <trkpt lat="48.00616" lon="7.08923">
        <ele>747</ele>
        <time>2019-05-07T00:30:18Z</time>
      </trkpt>
      <trkpt lat="48.00702" lon="7.08947">
        <ele>729</ele>
        <time>2019-05-07T00:31:18Z</time>
      </trkpt>
      <trkpt lat="48.00755" lon="7.0897">
        <ele>718</ele>
        <time>2019-05-07T00:32:18Z</time>
      </trkpt>
      <trkpt lat="48.00776" lon="7.08984">
        <ele>717</ele>
        <time>2019-05-07T00:33:18Z</time>
      </trkpt>
      <trkpt lat="48.00796" lon="7.09005">
        <ele>713</ele>
        <time>2019-05-07T00:34:18Z</time>
      </trkpt>
      <trkpt lat="48.00821" lon="7.0904">
        <ele>707</ele>
        <time>2019-05-07T00:35:18Z</time>
      </trkpt>
      <trkpt lat="48.00841" lon="7.09093">
        <ele>692</ele>
        <time>2019-05-07T00:36:18Z</time>
      </trkpt>
      <trkpt lat="48.00844" lon="7.09109">
        <ele>687</ele>
        <time>2019-05-07T00:37:18Z</time>
      </trkpt>
      <trkpt lat="48.00867" lon="7.09173">
        <ele>669</ele>
        <time>2019-05-07T00:38:18Z</time>
      </trkpt>
      <trkpt lat="48.00863" lon="7.09173">
        <ele>669</ele>
        <time>2019-05-07T00:39:18Z</time>
      </trkpt>
      <trkpt lat="48.00861" lon="7.09177">
        <ele>667</ele>
        <time>2019-05-07T00:40:18Z</time>
      </trkpt>
      <trkpt lat="48.00905" lon="7.0921">
        <ele>662</ele>
        <time>2019-05-07T00:41:18Z</time>
      </trkpt>
      <trkpt lat="48.0093" lon="7.09216">
        <ele>661</ele>
        <time>2019-05-07T00:42:18Z</time>
      </trkpt>
      <trkpt lat="48.00964" lon="7.09208">
        <ele>663</ele>
        <time>2019-05-07T00:43:18Z</time>
      </trkpt>
      <trkpt lat="48.01002" lon="7.09186">
        <ele>671</ele>
        <time>2019-05-07T00:44:18Z</time>
      </trkpt>
      <trkpt lat="48.01046" lon="7.09181">
        <ele>673</ele>
        <time>2019-05-07T00:45:18Z</time>
      </trkpt>
      <trkpt lat="48.01052" lon="7.09194">
        <ele>668</ele>
        <time>2019-05-07T00:46:18Z</time>
      </trkpt>
      <trkpt lat="48.01068" lon="7.09216">
        <ele>661</ele>
        <time>2019-05-07T00:47:18Z</time>
      </trkpt>
      <trkpt lat="48.01072" lon="7.09228">
        <ele>657</ele>
        <time>2019-05-07T00:48:18Z</time>
      </trkpt>
      <trkpt lat="48.01079" lon="7.09236">
        <ele>655</ele>
        <time>2019-05-07T00:49:18Z</time>
      </trkpt>
      <trkpt lat="48.01174" lon="7.09287">
        <ele>643</ele>
        <time>2019-05-07T00:50:18Z</time>
      </trkpt>
      <trkpt lat="48.01225" lon="7.09305">
        <ele>637</ele>
        <time>2019-05-07T00:51:18Z</time>
      </trkpt>
      <trkpt lat="48.01231" lon="7.09305">
        <ele>636</ele>
        <time>2019-05-07T00:52:18Z</time>
      </trkpt>
      <trkpt lat="48.0128" lon="7.09275">
        <ele>636</ele>
        <time>2019-05-07T00:53:18Z</time>
      </trkpt>
      <trkpt lat="48.01301" lon="7.09259">
        <ele>634</ele>
        <time>2019-05-07T00:54:18Z</time>
      </trkpt>
      <trkpt lat="48.01316" lon="7.09243">
        <ele>635</ele>
        <time>2019-05-07T00:55:18Z</time>
      </trkpt>
      <trkpt lat="48.01357" lon="7.09213">
        <ele>639</ele>
        <time>2019-05-07T00:56:18Z</time>
      </trkpt>
      <trkpt lat="48.01427" lon="7.09197">
        <ele>637</ele>
        <time>2019-05-07T00:57:18Z</time>
      </trkpt>
      <trkpt lat="48.01453" lon="7.09222">
        <ele>631</ele>
        <time>2019-05-07T00:58:18Z</time>
      </trkpt>
      <trkpt lat="48.01501" lon="7.09298">
        <ele>621</ele>
        <time>2019-05-07T00:59:18Z</time>
      </trkpt>
      <trkpt lat="48.01517" lon="7.09315">
        <ele>617</ele>
        <time>2019-05-07T01:00:18Z</time>
      </trkpt>
      <trkpt lat="48.01561" lon="7.09372">
        <ele>609</ele>
        <time>2019-05-07T01:01:18Z</time>
      </trkpt>
      <trkpt lat="48.01572" lon="7.09404">
        <ele>605</ele>
        <time>2019-05-07T01:02:18Z</time>
      </trkpt>
      <trkpt lat="48.01611" lon="7.09437">
        <ele>600</ele>
        <time>2019-05-07T01:03:18Z</time>
      </trkpt>
      <trkpt lat="48.01643" lon="7.09479">
        <ele>594</ele>
        <time>2019-05-07T01:04:18Z</time>
      </trkpt>
      <trkpt lat="48.01715" lon="7.09539">
        <ele>586</ele>
        <time>2019-05-07T01:05:18Z</time>
      </trkpt>
      <trkpt lat="48.01719" lon="7.09547">
        <ele>585</ele>
        <time>2019-05-07T01:06:18Z</time>
      </trkpt>
      <trkpt lat="48.01719" lon="7.09564">
        <ele>583</ele>
        <time>2019-05-07T01:07:18Z</time>
      </trkpt>
      <trkpt lat="48.01715" lon="7.09569">
        <ele>582</ele>
        <time>2019-05-07T01:08:18Z</time>
      </trkpt>
      <trkpt lat="48.01707" lon="7.09573">
        <ele>581</ele>
        <time>2019-05-07T01:09:18Z</time>
      </trkpt>
      <trkpt lat="48.01683" lon="7.09576">
        <ele>578</ele>
        <time>2019-05-07T01:10:18Z</time>
      </trkpt>
      <trkpt lat="48.01677" lon="7.09583">
        <ele>576</ele>
        <time>2019-05-07T01:11:18Z</time>
      </trkpt>
      <trkpt lat="48.01693" lon="7.09651">
        <ele>568</ele>
        <time>2019-05-07T01:12:18Z</time>
      </trkpt>
      <trkpt lat="48.01709" lon="7.09738">
        <ele>556</ele>
        <time>2019-05-07T01:13:18Z</time>
      </trkpt>
      <trkpt lat="48.01732" lon="7.09773">
        <ele>555</ele>
        <time>2019-05-07T01:14:18Z</time>
      </trkpt>
      <trkpt lat="48.01779" lon="7.09831">
        <ele>555</ele>
        <time>2019-05-07T01:15:18Z</time>
      </trkpt>
      <trkpt lat="48.01821" lon="7.09873">
        <ele>553</ele>
        <time>2019-05-07T01:16:18Z</time>
      </trkpt>
      <trkpt lat="48.01853" lon="7.09901">
        <ele>550</ele>
        <time>2019-05-07T01:17:18Z</time>
      </trkpt>
      <trkpt lat="48.01897" lon="7.0992">
        <ele>545</ele>
        <time>2019-05-07T01:18:18Z</time>
      </trkpt>
      <trkpt lat="48.01955" lon="7.09931">
        <ele>534</ele>
        <time>2019-05-07T01:19:18Z</time>
      </trkpt>
      <trkpt lat="48.01973" lon="7.0993">
        <ele>531</ele>
        <time>2019-05-07T01:20:18Z</time>
      </trkpt>
      <trkpt lat="48.02003" lon="7.09918">
        <ele>527</ele>
        <time>2019-05-07T01:21:18Z</time>
      </trkpt>
      <trkpt lat="48.02014" lon="7.09904">
        <ele>526</ele>
        <time>2019-05-07T01:22:18Z</time>
      </trkpt>
      <trkpt lat="48.02023" lon="7.09864">
        <ele>527</ele>
        <time>2019-05-07T01:23:18Z</time>
      </trkpt>
      <trkpt lat="48.02027" lon="7.09789">
        <ele>530</ele>
        <time>2019-05-07T01:24:18Z</time>
      </trkpt>
      <trkpt lat="48.02023" lon="7.09725">
        <ele>535</ele>
        <time>2019-05-07T01:25:18Z</time>
      </trkpt>
      <trkpt lat="48.0204" lon="7.09653">
        <ele>532</ele>
        <time>2019-05-07T01:26:18Z</time>
      </trkpt>
      <trkpt lat="48.02037" lon="7.09603">
        <ele>532</ele>
        <time>2019-05-07T01:27:18Z</time>
      </trkpt>
      <trkpt lat="48.02029" lon="7.09553">
        <ele>532</ele>
        <time>2019-05-07T01:28:18Z</time>
      </trkpt>
      <trkpt lat="48.02008" lon="7.09526">
        <ele>537</ele>
        <time>2019-05-07T01:29:18Z</time>
      </trkpt>
      <trkpt lat="48.01989" lon="7.09494">
        <ele>540</ele>
        <time>2019-05-07T01:30:18Z</time>
      </trkpt>
      <trkpt lat="48.01967" lon="7.09463">
        <ele>543</ele>
        <time>2019-05-07T01:31:18Z</time>
      </trkpt>
      <trkpt lat="48.0196" lon="7.09458">
        <ele>545</ele>
        <time>2019-05-07T01:32:18Z</time>
      </trkpt>
      <trkpt lat="48.0195" lon="7.09443">
        <ele>546</ele>
        <time>2019-05-07T01:33:18Z</time>
      </trkpt>
      <trkpt lat="48.01929" lon="7.09381">
        <ele>547</ele>
        <time>2019-05-07T01:34:18Z</time>
      </trkpt>
      <trkpt lat="48.01923" lon="7.09379">
        <ele>549</ele>
        <time>2019-05-07T01:35:18Z</time>
      </trkpt>
      <trkpt lat="48.01909" lon="7.09385">
        <ele>553</ele>
        <time>2019-05-07T01:36:18Z</time>
      </trkpt>
      <trkpt lat="48.01881" lon="7.09412">
        <ele>560</ele>
        <time>2019-05-07T01:37:18Z</time>
      </trkpt>
      <trkpt lat="48.01874" lon="7.0944">
        <ele>563</ele>
        <time>2019-05-07T01:38:18Z</time>
      </trkpt>
      <trkpt lat="48.0188" lon="7.09465">
        <ele>565</ele>
        <time>2019-05-07T01:39:18Z</time>
      </trkpt>
      <trkpt lat="48.01888" lon="7.09476">
        <ele>564</ele>
        <time>2019-05-07T01:40:18Z</time>
      </trkpt>
      <trkpt lat="48.01904" lon="7.09485">
        <ele>563</ele>
        <time>2019-05-07T01:41:18Z</time>
      </trkpt>
      <trkpt lat="48.01921" lon="7.09509">
        <ele>562</ele>
        <time>2019-05-07T01:42:18Z</time>
      </trkpt>
      <trkpt lat="48.01933" lon="7.09536">
        <ele>561</ele>
        <time>2019-05-07T01:43:18Z</time>
      </trkpt>
      <trkpt lat="48.01927" lon="7.09577">
        <ele>567</ele>
        <time>2019-05-07T01:44:18Z</time>
      </trkpt>
      <trkpt lat="48.01928" lon="7.09614">
        <ele>569</ele>
        <time>2019-05-07T01:45:18Z</time>
      </trkpt>
      <trkpt lat="48.01925" lon="7.09627">
        <ele>570</ele>
        <time>2019-05-07T01:46:18Z</time>
      </trkpt>
      <trkpt lat="48.01936" lon="7.09672">
        <ele>568</ele>
        <time>2019-05-07T01:47:18Z</time>
      </trkpt>
      <trkpt lat="48.01937" lon="7.09691">
        <ele>567</ele>
        <time>2019-05-07T01:48:18Z</time>
      </trkpt>
      <trkpt lat="48.01925" lon="7.09805">
        <ele>565</ele>
        <time>2019-05-07T01:49:18Z</time>
      </trkpt>
      <trkpt lat="48.01919" lon="7.09804">
        <ele>568</ele>
        <time>2019-05-07T01:50:18Z</time>
      </trkpt>
      <trkpt lat="48.01874" lon="7.09779">
        <ele>571</ele>
        <time>2019-05-07T01:51:18Z</time>
      </trkpt>
      <trkpt lat="48.01839" lon="7.09755">
        <ele>576</ele>
        <time>2019-05-07T01:52:18Z</time>
      </trkpt>
      <trkpt lat="48.01801" lon="7.09726">
        <ele>573</ele>
        <time>2019-05-07T01:53:18Z</time>
      </trkpt>
      <trkpt lat="48.01795" lon="7.09716">
        <ele>574</ele>
        <time>2019-05-07T01:54:18Z</time>
      </trkpt>
      <trkpt lat="48.01788" lon="7.09669">
        <ele>578</ele>
        <time>2019-05-07T01:55:18Z</time>
      </trkpt>
      <trkpt lat="48.0178" lon="7.09649">
        <ele>579</ele>
        <time>2019-05-07T01:56:18Z</time>
      </trkpt>
      <trkpt lat="48.01778" lon="7.09634">
        <ele>580</ele>
        <time>2019-05-07T01:57:18Z</time>
      </trkpt>
      <trkpt lat="48.01762" lon="7.09578">
        <ele>585</ele>
        <time>2019-05-07T01:58:18Z</time>
      </trkpt>
      <trkpt lat="48.01762" lon="7.0957">
        <ele>585</ele>
        <time>2019-05-07T01:59:18Z</time>
      </trkpt>
      <trkpt lat="48.01773" lon="7.09541">
        <ele>585</ele>
        <time>2019-05-07T02:00:18Z</time>
      </trkpt>
      <trkpt lat="48.0176" lon="7.09519">
        <ele>586</ele>
        <time>2019-05-07T02:01:18Z</time>
      </trkpt>
      <trkpt lat="48.01751" lon="7.09482">
        <ele>587</ele>
        <time>2019-05-07T02:02:18Z</time>
      </trkpt>
      <trkpt lat="48.01731" lon="7.09449">
        <ele>589</ele>
        <time>2019-05-07T02:03:18Z</time>
      </trkpt>
      <trkpt lat="48.01712" lon="7.09409">
        <ele>592</ele>
        <time>2019-05-07T02:04:18Z</time>
      </trkpt>
      <trkpt lat="48.01709" lon="7.09396">
        <ele>592</ele>
        <time>2019-05-07T02:05:18Z</time>
      </trkpt>
      <trkpt lat="48.01675" lon="7.09338">
        <ele>598</ele>
        <time>2019-05-07T02:06:18Z</time>
      </trkpt>
      <trkpt lat="48.01655" lon="7.09274">
        <ele>604</ele>
        <time>2019-05-07T02:07:18Z</time>
      </trkpt>
      <trkpt lat="48.01659" lon="7.09244">
        <ele>604</ele>
        <time>2019-05-07T02:08:18Z</time>
      </trkpt>
      <trkpt lat="48.01656" lon="7.09197">
        <ele>608</ele>
        <time>2019-05-07T02:09:18Z</time>
      </trkpt>
      <trkpt lat="48.01638" lon="7.09153">
        <ele>615</ele>
        <time>2019-05-07T02:10:18Z</time>
      </trkpt>
      <trkpt lat="48.01643" lon="7.09109">
        <ele>619</ele>
        <time>2019-05-07T02:11:18Z</time>
      </trkpt>
      <trkpt lat="48.01654" lon="7.09057">
        <ele>621</ele>
        <time>2019-05-07T02:12:18Z</time>
      </trkpt>
      <trkpt lat="48.01667" lon="7.0902">
        <ele>622</ele>
        <time>2019-05-07T02:13:18Z</time>
      </trkpt>
      <trkpt lat="48.01684" lon="7.08998">
        <ele>621</ele>
        <time>2019-05-07T02:14:18Z</time>
      </trkpt>
      <trkpt lat="48.01699" lon="7.08988">
        <ele>618</ele>
        <time>2019-05-07T02:15:18Z</time>
      </trkpt>
      <trkpt lat="48.01706" lon="7.08991">
        <ele>617</ele>
        <time>2019-05-07T02:16:18Z</time>
      </trkpt>
      <trkpt lat="48.01714" lon="7.08999">
        <ele>615</ele>
        <time>2019-05-07T02:17:18Z</time>
      </trkpt>
      <trkpt lat="48.01735" lon="7.0901">
        <ele>610</ele>
        <time>2019-05-07T02:18:18Z</time>
      </trkpt>
      <trkpt lat="48.01743" lon="7.09005">
        <ele>610</ele>
        <time>2019-05-07T02:19:18Z</time>
      </trkpt>
      <trkpt lat="48.01746" lon="7.0899">
        <ele>609</ele>
        <time>2019-05-07T02:20:18Z</time>
      </trkpt>
      <trkpt lat="48.01747" lon="7.08969">
        <ele>608</ele>
        <time>2019-05-07T02:21:18Z</time>
      </trkpt>
      <trkpt lat="48.01743" lon="7.08929">
        <ele>607</ele>
        <time>2019-05-07T02:22:18Z</time>
      </trkpt>
      <trkpt lat="48.01716" lon="7.08844">
        <ele>611</ele>
        <time>2019-05-07T02:23:18Z</time>
      </trkpt>
      <trkpt lat="48.01691" lon="7.08795">
        <ele>613</ele>
        <time>2019-05-07T02:24:18Z</time>
      </trkpt>
      <trkpt lat="48.0168" lon="7.08778">
        <ele>614</ele>
        <time>2019-05-07T02:25:18Z</time>
      </trkpt>
      <trkpt lat="48.01658" lon="7.08756">
        <ele>615</ele>
        <time>2019-05-07T02:26:18Z</time>
      </trkpt>
      <trkpt lat="48.01609" lon="7.08737">
        <ele>616</ele>
        <time>2019-05-07T02:27:18Z</time>
      </trkpt>
      <trkpt lat="48.01595" lon="7.08734">
        <ele>617</ele>
        <time>2019-05-07T02:28:18Z</time>
      </trkpt>
      <trkpt lat="48.01498" lon="7.08737">
        <ele>622</ele>
        <time>2019-05-07T02:29:18Z</time>
      </trkpt>
      <trkpt lat="48.01475" lon="7.08748">
        <ele>624</ele>
        <time>2019-05-07T02:30:18Z</time>
      </trkpt>
      <trkpt lat="48.01401" lon="7.08742">
        <ele>624</ele>
        <time>2019-05-07T02:31:18Z</time>
      </trkpt>
      <trkpt lat="48.01365" lon="7.08633">
        <ele>621</ele>
        <time>2019-05-07T02:32:18Z</time>
      </trkpt>
      <trkpt lat="48.01351" lon="7.08603">
        <ele>619</ele>
        <time>2019-05-07T02:33:18Z</time>
      </trkpt>
      <trkpt lat="48.01306" lon="7.08534">
        <ele>618</ele>
        <time>2019-05-07T02:34:18Z</time>
      </trkpt>
      <trkpt lat="48.01278" lon="7.08477">
        <ele>615</ele>
        <time>2019-05-07T02:35:18Z</time>
      </trkpt>
      <trkpt lat="48.01255" lon="7.08396">
        <ele>608</ele>
        <time>2019-05-07T02:36:18Z</time>
      </trkpt>
      <trkpt lat="48.01252" lon="7.0837">
        <ele>606</ele>
        <time>2019-05-07T02:37:18Z</time>
      </trkpt>
      <trkpt lat="48.01281" lon="7.08417">
        <ele>603</ele>
        <time>2019-05-07T02:38:18Z</time>
      </trkpt>
      <trkpt lat="48.01291" lon="7.08438">
        <ele>604</ele>
        <time>2019-05-07T02:39:18Z</time>
      </trkpt>
      <trkpt lat="48.01653" lon="7.08674">
        <ele>583</ele>
        <time>2019-05-07T02:40:18Z</time>
      </trkpt>
      <trkpt lat="48.01731" lon="7.08534">
        <ele>537</ele>
        <time>2019-05-07T02:41:18Z</time>
      </trkpt>
      <trkpt lat="48.01774" lon="7.08486">
        <ele>537</ele>
        <time>2019-05-07T02:42:18Z</time>
      </trkpt>
      <trkpt lat="48.01794" lon="7.08453">
        <ele>543</ele>
        <time>2019-05-07T02:43:18Z</time>
      </trkpt>
      <trkpt lat="48.01811" lon="7.08441">
        <ele>544</ele>
        <time>2019-05-07T02:44:18Z</time>
      </trkpt>
      <trkpt lat="48.01816" lon="7.08453">
        <ele>542</ele>
        <time>2019-05-07T02:45:18Z</time>
      </trkpt>
      <trkpt lat="48.01815" lon="7.08514">
        <ele>534</ele>
        <time>2019-05-07T02:46:18Z</time>
      </trkpt>
      <trkpt lat="48.01825" lon="7.08532">
        <ele>532</ele>
        <time>2019-05-07T02:47:18Z</time>
      </trkpt>
      <trkpt lat="48.01854" lon="7.08564">
        <ele>528</ele>
        <time>2019-05-07T02:48:18Z</time>
      </trkpt>
      <trkpt lat="48.01871" lon="7.08577">
        <ele>526</ele>
        <time>2019-05-07T02:49:18Z</time>
      </trkpt>
      <trkpt lat="48.01866" lon="7.08628">
        <ele>528</ele>
        <time>2019-05-07T02:50:18Z</time>
      </trkpt>
      <trkpt lat="48.01884" lon="7.08636">
        <ele>525</ele>
        <time>2019-05-07T02:51:18Z</time>
      </trkpt>
      <trkpt lat="48.01923" lon="7.0867">
        <ele>515</ele>
        <time>2019-05-07T02:52:18Z</time>
      </trkpt>
      <trkpt lat="48.01949" lon="7.087">
        <ele>514</ele>
        <time>2019-05-07T02:53:18Z</time>
      </trkpt>
      <trkpt lat="48.01995" lon="7.08737">
        <ele>505</ele>
        <time>2019-05-07T02:54:18Z</time>
      </trkpt>
      <trkpt lat="48.02036" lon="7.08776">
        <ele>499</ele>
        <time>2019-05-07T02:55:18Z</time>
      </trkpt>
      <trkpt lat="48.02061" lon="7.08813">
        <ele>493</ele>
        <time>2019-05-07T02:56:18Z</time>
      </trkpt>
      <trkpt lat="48.02079" lon="7.08846">
        <ele>486</ele>
        <time>2019-05-07T02:57:18Z</time>
      </trkpt>
      <trkpt lat="48.0211" lon="7.08885">
        <ele>478</ele>
        <time>2019-05-07T02:58:18Z</time>
      </trkpt>
      <trkpt lat="48.02143" lon="7.08963">
        <ele>467</ele>
        <time>2019-05-07T02:59:18Z</time>
      </trkpt>
      <trkpt lat="48.0216" lon="7.08975">
        <ele>462</ele>
        <time>2019-05-07T03:00:18Z</time>
      </trkpt>
      <trkpt lat="48.02213" lon="7.08998">
        <ele>456</ele>
        <time>2019-05-07T03:01:18Z</time>
      </trkpt>
      <trkpt lat="48.02235" lon="7.09026">
        <ele>453</ele>
        <time>2019-05-07T03:02:18Z</time>
      </trkpt>
      <trkpt lat="48.0225" lon="7.09053">
        <ele>451</ele>
        <time>2019-05-07T03:03:18Z</time>
      </trkpt>
      <trkpt lat="48.02264" lon="7.09068">
        <ele>450</ele>
        <time>2019-05-07T03:04:18Z</time>
      </trkpt>
      <trkpt lat="48.02301" lon="7.0909">
        <ele>448</ele>
        <time>2019-05-07T03:05:18Z</time>
      </trkpt>
      <trkpt lat="48.02308" lon="7.09087">
        <ele>447</ele>
        <time>2019-05-07T03:06:18Z</time>
      </trkpt>
      <trkpt lat="48.02318" lon="7.09045">
        <ele>447</ele>
        <time>2019-05-07T03:07:18Z</time>
      </trkpt>
      <trkpt lat="48.02325" lon="7.09034">
        <ele>446</ele>
        <time>2019-05-07T03:08:18Z</time>
      </trkpt>
      <trkpt lat="48.0232" lon="7.08943">
        <ele>449</ele>
        <time>2019-05-07T03:09:18Z</time>
      </trkpt>
      <trkpt lat="48.02322" lon="7.08871">
        <ele>451</ele>
        <time>2019-05-07T03:10:18Z</time>
      </trkpt>
      <trkpt lat="48.02321" lon="7.0879">
        <ele>453</ele>
        <time>2019-05-07T03:11:18Z</time>
      </trkpt>
      <trkpt lat="48.02316" lon="7.0873">
        <ele>454</ele>
        <time>2019-05-07T03:12:18Z</time>
      </trkpt>
      <trkpt lat="48.02306" lon="7.08688">
        <ele>454</ele>
        <time>2019-05-07T03:13:18Z</time>
      </trkpt>
      <trkpt lat="48.02284" lon="7.08628">
        <ele>456</ele>
        <time>2019-05-07T03:14:18Z</time>
      </trkpt>
      <trkpt lat="48.02242" lon="7.08618">
        <ele>462</ele>
        <time>2019-05-07T03:15:18Z</time>
      </trkpt>
      <trkpt lat="48.02232" lon="7.08594">
        <ele>464</ele>
        <time>2019-05-07T03:16:18Z</time>
      </trkpt>
      <trkpt lat="48.02197" lon="7.08541">
        <ele>468</ele>
        <time>2019-05-07T03:17:18Z</time>
      </trkpt>
      <trkpt lat="48.02165" lon="7.08519">
        <ele>472</ele>
        <time>2019-05-07T03:18:18Z</time>
      </trkpt>
    </trkseg>
  </trk>
</gpx>